<?xml version="1.0" encoding="UTF-8" standalone="no" ?>
<gpx xmlns="http://www.topografix.com/GPX/1/1" xmlns:xsi="http://www.w3.org/2001/XMLSchema-instance" xsi:schemaLocation="http://www.topografix.com/GPX/1/1 http://www.topografix.com/GPX/1/1/gpx.xsd" version="1.1" creator="VisuGPX - https://www.visugpx.com">
  <metadata>
    <name>44km chemellier 2025</name>
  </metadata>
  <trk>
    <name><![CDATA[Chemellier "rando du feu 2025"-21353484]]></name>
    <trkseg>
      <trkpt lat="47.33925" lon="-0.35437">
        <ele>59</ele>
        <time>2025-05-11T15:53:44Z</time>
      </trkpt>
      <trkpt lat="47.33929" lon="-0.35445">
        <ele>59</ele>
        <time>2025-05-11T15:53:46Z</time>
      </trkpt>
      <trkpt lat="47.33932" lon="-0.35462">
        <ele>59</ele>
        <time>2025-05-11T15:53:48Z</time>
      </trkpt>
      <trkpt lat="47.33938" lon="-0.35464">
        <ele>59</ele>
        <time>2025-05-11T15:53:50Z</time>
      </trkpt>
      <trkpt lat="47.33971" lon="-0.35446">
        <ele>58</ele>
        <time>2025-05-11T15:53:58Z</time>
      </trkpt>
      <trkpt lat="47.3399" lon="-0.35432">
        <ele>58</ele>
        <time>2025-05-11T15:54:03Z</time>
      </trkpt>
      <trkpt lat="47.33996" lon="-0.35434">
        <ele>58</ele>
        <time>2025-05-11T15:54:04Z</time>
      </trkpt>
      <trkpt lat="47.34" lon="-0.35439">
        <ele>58</ele>
        <time>2025-05-11T15:54:06Z</time>
      </trkpt>
      <trkpt lat="47.34001" lon="-0.35498">
        <ele>58</ele>
        <time>2025-05-11T15:54:15Z</time>
      </trkpt>
      <trkpt lat="47.34014" lon="-0.35611">
        <ele>58</ele>
        <time>2025-05-11T15:54:33Z</time>
      </trkpt>
      <trkpt lat="47.3404" lon="-0.3573">
        <ele>57</ele>
        <time>2025-05-11T15:54:53Z</time>
      </trkpt>
      <trkpt lat="47.34051" lon="-0.35796">
        <ele>57</ele>
        <time>2025-05-11T15:55:04Z</time>
      </trkpt>
      <trkpt lat="47.34066" lon="-0.35847">
        <ele>57</ele>
        <time>2025-05-11T15:55:12Z</time>
      </trkpt>
      <trkpt lat="47.34073" lon="-0.35856">
        <ele>56</ele>
        <time>2025-05-11T15:55:15Z</time>
      </trkpt>
      <trkpt lat="47.34086" lon="-0.35857">
        <ele>56</ele>
        <time>2025-05-11T15:55:18Z</time>
      </trkpt>
      <trkpt lat="47.34095" lon="-0.35869">
        <ele>55</ele>
        <time>2025-05-11T15:55:20Z</time>
      </trkpt>
      <trkpt lat="47.341" lon="-0.35872">
        <ele>55</ele>
        <time>2025-05-11T15:55:22Z</time>
      </trkpt>
      <trkpt lat="47.34119" lon="-0.35874">
        <ele>54</ele>
        <time>2025-05-11T15:55:26Z</time>
      </trkpt>
      <trkpt lat="47.34148" lon="-0.35881">
        <ele>53</ele>
        <time>2025-05-11T15:55:33Z</time>
      </trkpt>
      <trkpt lat="47.34176" lon="-0.35878">
        <ele>53</ele>
        <time>2025-05-11T15:55:40Z</time>
      </trkpt>
      <trkpt lat="47.34207" lon="-0.35866">
        <ele>52</ele>
        <time>2025-05-11T15:55:47Z</time>
      </trkpt>
      <trkpt lat="47.34249" lon="-0.35839">
        <ele>52</ele>
        <time>2025-05-11T15:55:58Z</time>
      </trkpt>
      <trkpt lat="47.34303" lon="-0.35795">
        <ele>51</ele>
        <time>2025-05-11T15:56:12Z</time>
      </trkpt>
      <trkpt lat="47.34328" lon="-0.35778">
        <ele>50</ele>
        <time>2025-05-11T15:56:19Z</time>
      </trkpt>
      <trkpt lat="47.34348" lon="-0.3577">
        <ele>50</ele>
        <time>2025-05-11T15:56:23Z</time>
      </trkpt>
      <trkpt lat="47.34373" lon="-0.35768">
        <ele>49</ele>
        <time>2025-05-11T15:56:29Z</time>
      </trkpt>
      <trkpt lat="47.34389" lon="-0.35774">
        <ele>49</ele>
        <time>2025-05-11T15:56:33Z</time>
      </trkpt>
      <trkpt lat="47.34423" lon="-0.35795">
        <ele>49</ele>
        <time>2025-05-11T15:56:42Z</time>
      </trkpt>
      <trkpt lat="47.34515" lon="-0.35868">
        <ele>50</ele>
        <time>2025-05-11T15:57:06Z</time>
      </trkpt>
      <trkpt lat="47.34539" lon="-0.35883">
        <ele>50</ele>
        <time>2025-05-11T15:57:12Z</time>
      </trkpt>
      <trkpt lat="47.34571" lon="-0.35896">
        <ele>50</ele>
        <time>2025-05-11T15:57:20Z</time>
      </trkpt>
      <trkpt lat="47.34592" lon="-0.359">
        <ele>50</ele>
        <time>2025-05-11T15:57:25Z</time>
      </trkpt>
      <trkpt lat="47.3464" lon="-0.35916">
        <ele>50</ele>
        <time>2025-05-11T15:57:36Z</time>
      </trkpt>
      <trkpt lat="47.34768" lon="-0.35981">
        <ele>50</ele>
        <time>2025-05-11T15:58:08Z</time>
      </trkpt>
      <trkpt lat="47.34775" lon="-0.35979">
        <ele>50</ele>
        <time>2025-05-11T15:58:10Z</time>
      </trkpt>
      <trkpt lat="47.34779" lon="-0.35962">
        <ele>50</ele>
        <time>2025-05-11T15:58:13Z</time>
      </trkpt>
      <trkpt lat="47.34758" lon="-0.35741">
        <ele>49</ele>
        <time>2025-05-11T15:58:48Z</time>
      </trkpt>
      <trkpt lat="47.34758" lon="-0.35733">
        <ele>49</ele>
        <time>2025-05-11T15:58:49Z</time>
      </trkpt>
      <trkpt lat="47.34761" lon="-0.35727">
        <ele>50</ele>
        <time>2025-05-11T15:58:50Z</time>
      </trkpt>
      <trkpt lat="47.34768" lon="-0.35728">
        <ele>50</ele>
        <time>2025-05-11T15:58:52Z</time>
      </trkpt>
      <trkpt lat="47.3489" lon="-0.35779">
        <ele>53</ele>
        <time>2025-05-11T15:59:22Z</time>
      </trkpt>
      <trkpt lat="47.34903" lon="-0.35781">
        <ele>53</ele>
        <time>2025-05-11T15:59:25Z</time>
      </trkpt>
      <trkpt lat="47.35152" lon="-0.35638">
        <ele>60</ele>
        <time>2025-05-11T16:00:27Z</time>
      </trkpt>
      <trkpt lat="47.35222" lon="-0.35601">
        <ele>60</ele>
        <time>2025-05-11T16:00:44Z</time>
      </trkpt>
      <trkpt lat="47.35229" lon="-0.3561">
        <ele>61</ele>
        <time>2025-05-11T16:00:47Z</time>
      </trkpt>
      <trkpt lat="47.35232" lon="-0.35631">
        <ele>61</ele>
        <time>2025-05-11T16:00:50Z</time>
      </trkpt>
      <trkpt lat="47.35233" lon="-0.35722">
        <ele>63</ele>
        <time>2025-05-11T16:01:04Z</time>
      </trkpt>
      <trkpt lat="47.35229" lon="-0.35821">
        <ele>65</ele>
        <time>2025-05-11T16:01:20Z</time>
      </trkpt>
      <trkpt lat="47.35232" lon="-0.35847">
        <ele>66</ele>
        <time>2025-05-11T16:01:24Z</time>
      </trkpt>
      <trkpt lat="47.35239" lon="-0.35859">
        <ele>66</ele>
        <time>2025-05-11T16:01:27Z</time>
      </trkpt>
      <trkpt lat="47.35295" lon="-0.3592">
        <ele>69</ele>
        <time>2025-05-11T16:01:43Z</time>
      </trkpt>
      <trkpt lat="47.3537" lon="-0.36012">
        <ele>72</ele>
        <time>2025-05-11T16:02:06Z</time>
      </trkpt>
      <trkpt lat="47.35378" lon="-0.36029">
        <ele>73</ele>
        <time>2025-05-11T16:02:09Z</time>
      </trkpt>
      <trkpt lat="47.35412" lon="-0.36128">
        <ele>79</ele>
        <time>2025-05-11T16:02:27Z</time>
      </trkpt>
      <trkpt lat="47.35441" lon="-0.3623">
        <ele>84</ele>
        <time>2025-05-11T16:02:44Z</time>
      </trkpt>
      <trkpt lat="47.35449" lon="-0.36226">
        <ele>84</ele>
        <time>2025-05-11T16:02:46Z</time>
      </trkpt>
      <trkpt lat="47.3547" lon="-0.36175">
        <ele>85</ele>
        <time>2025-05-11T16:02:56Z</time>
      </trkpt>
      <trkpt lat="47.35474" lon="-0.36171">
        <ele>85</ele>
        <time>2025-05-11T16:02:57Z</time>
      </trkpt>
      <trkpt lat="47.35484" lon="-0.36168">
        <ele>86</ele>
        <time>2025-05-11T16:02:59Z</time>
      </trkpt>
      <trkpt lat="47.35494" lon="-0.36153">
        <ele>86</ele>
        <time>2025-05-11T16:03:02Z</time>
      </trkpt>
      <trkpt lat="47.35527" lon="-0.36141">
        <ele>85</ele>
        <time>2025-05-11T16:03:10Z</time>
      </trkpt>
      <trkpt lat="47.35551" lon="-0.36138">
        <ele>84</ele>
        <time>2025-05-11T16:03:16Z</time>
      </trkpt>
      <trkpt lat="47.35561" lon="-0.3613">
        <ele>84</ele>
        <time>2025-05-11T16:03:19Z</time>
      </trkpt>
      <trkpt lat="47.35568" lon="-0.3614">
        <ele>83</ele>
        <time>2025-05-11T16:03:21Z</time>
      </trkpt>
      <trkpt lat="47.35579" lon="-0.36145">
        <ele>83</ele>
        <time>2025-05-11T16:03:24Z</time>
      </trkpt>
      <trkpt lat="47.35589" lon="-0.36153">
        <ele>82</ele>
        <time>2025-05-11T16:03:26Z</time>
      </trkpt>
      <trkpt lat="47.35596" lon="-0.36149">
        <ele>81</ele>
        <time>2025-05-11T16:03:28Z</time>
      </trkpt>
      <trkpt lat="47.35611" lon="-0.3613">
        <ele>79</ele>
        <time>2025-05-11T16:03:33Z</time>
      </trkpt>
      <trkpt lat="47.35707" lon="-0.36046">
        <ele>67</ele>
        <time>2025-05-11T16:03:59Z</time>
      </trkpt>
      <trkpt lat="47.35728" lon="-0.36017">
        <ele>66</ele>
        <time>2025-05-11T16:04:05Z</time>
      </trkpt>
      <trkpt lat="47.35754" lon="-0.35968">
        <ele>63</ele>
        <time>2025-05-11T16:04:15Z</time>
      </trkpt>
      <trkpt lat="47.3576" lon="-0.35969">
        <ele>63</ele>
        <time>2025-05-11T16:04:17Z</time>
      </trkpt>
      <trkpt lat="47.3577" lon="-0.35989">
        <ele>63</ele>
        <time>2025-05-11T16:04:21Z</time>
      </trkpt>
      <trkpt lat="47.35825" lon="-0.36153">
        <ele>68</ele>
        <time>2025-05-11T16:04:49Z</time>
      </trkpt>
      <trkpt lat="47.35826" lon="-0.36162">
        <ele>69</ele>
        <time>2025-05-11T16:04:51Z</time>
      </trkpt>
      <trkpt lat="47.35819" lon="-0.36178">
        <ele>70</ele>
        <time>2025-05-11T16:04:54Z</time>
      </trkpt>
      <trkpt lat="47.35819" lon="-0.36187">
        <ele>70</ele>
        <time>2025-05-11T16:04:55Z</time>
      </trkpt>
      <trkpt lat="47.3584" lon="-0.36275">
        <ele>76</ele>
        <time>2025-05-11T16:05:10Z</time>
      </trkpt>
      <trkpt lat="47.35839" lon="-0.36356">
        <ele>81</ele>
        <time>2025-05-11T16:05:23Z</time>
      </trkpt>
      <trkpt lat="47.35842" lon="-0.36373">
        <ele>82</ele>
        <time>2025-05-11T16:05:26Z</time>
      </trkpt>
      <trkpt lat="47.35872" lon="-0.36443">
        <ele>86</ele>
        <time>2025-05-11T16:05:39Z</time>
      </trkpt>
      <trkpt lat="47.35899" lon="-0.36494">
        <ele>87</ele>
        <time>2025-05-11T16:05:49Z</time>
      </trkpt>
      <trkpt lat="47.35906" lon="-0.36498">
        <ele>87</ele>
        <time>2025-05-11T16:05:51Z</time>
      </trkpt>
      <trkpt lat="47.35914" lon="-0.36495">
        <ele>88</ele>
        <time>2025-05-11T16:05:53Z</time>
      </trkpt>
      <trkpt lat="47.35919" lon="-0.36496">
        <ele>88</ele>
        <time>2025-05-11T16:05:54Z</time>
      </trkpt>
      <trkpt lat="47.35933" lon="-0.36511">
        <ele>85</ele>
        <time>2025-05-11T16:05:58Z</time>
      </trkpt>
      <trkpt lat="47.35942" lon="-0.36525">
        <ele>83</ele>
        <time>2025-05-11T16:06:01Z</time>
      </trkpt>
      <trkpt lat="47.35952" lon="-0.36548">
        <ele>81</ele>
        <time>2025-05-11T16:06:05Z</time>
      </trkpt>
      <trkpt lat="47.3595" lon="-0.36565">
        <ele>81</ele>
        <time>2025-05-11T16:06:08Z</time>
      </trkpt>
      <trkpt lat="47.35952" lon="-0.36569">
        <ele>80</ele>
        <time>2025-05-11T16:06:09Z</time>
      </trkpt>
      <trkpt lat="47.35955" lon="-0.3657">
        <ele>80</ele>
        <time>2025-05-11T16:06:10Z</time>
      </trkpt>
      <trkpt lat="47.3596" lon="-0.36565">
        <ele>80</ele>
        <time>2025-05-11T16:06:11Z</time>
      </trkpt>
      <trkpt lat="47.3599" lon="-0.36526">
        <ele>79</ele>
        <time>2025-05-11T16:06:20Z</time>
      </trkpt>
      <trkpt lat="47.36031" lon="-0.36495">
        <ele>77</ele>
        <time>2025-05-11T16:06:31Z</time>
      </trkpt>
      <trkpt lat="47.36093" lon="-0.36462">
        <ele>73</ele>
        <time>2025-05-11T16:06:46Z</time>
      </trkpt>
      <trkpt lat="47.36101" lon="-0.3646">
        <ele>73</ele>
        <time>2025-05-11T16:06:48Z</time>
      </trkpt>
      <trkpt lat="47.3611" lon="-0.36466">
        <ele>73</ele>
        <time>2025-05-11T16:06:51Z</time>
      </trkpt>
      <trkpt lat="47.36116" lon="-0.36465">
        <ele>73</ele>
        <time>2025-05-11T16:06:52Z</time>
      </trkpt>
      <trkpt lat="47.36177" lon="-0.3643">
        <ele>72</ele>
        <time>2025-05-11T16:07:07Z</time>
      </trkpt>
      <trkpt lat="47.36191" lon="-0.36426">
        <ele>73</ele>
        <time>2025-05-11T16:07:11Z</time>
      </trkpt>
      <trkpt lat="47.36211" lon="-0.36424">
        <ele>75</ele>
        <time>2025-05-11T16:07:15Z</time>
      </trkpt>
      <trkpt lat="47.36221" lon="-0.36418">
        <ele>76</ele>
        <time>2025-05-11T16:07:18Z</time>
      </trkpt>
      <trkpt lat="47.36237" lon="-0.364">
        <ele>76</ele>
        <time>2025-05-11T16:07:23Z</time>
      </trkpt>
      <trkpt lat="47.36273" lon="-0.36384">
        <ele>76</ele>
        <time>2025-05-11T16:07:31Z</time>
      </trkpt>
      <trkpt lat="47.36279" lon="-0.36388">
        <ele>76</ele>
        <time>2025-05-11T16:07:33Z</time>
      </trkpt>
      <trkpt lat="47.36282" lon="-0.36396">
        <ele>76</ele>
        <time>2025-05-11T16:07:34Z</time>
      </trkpt>
      <trkpt lat="47.3629" lon="-0.36513">
        <ele>79</ele>
        <time>2025-05-11T16:07:53Z</time>
      </trkpt>
      <trkpt lat="47.36292" lon="-0.36519">
        <ele>79</ele>
        <time>2025-05-11T16:07:54Z</time>
      </trkpt>
      <trkpt lat="47.36301" lon="-0.36525">
        <ele>79</ele>
        <time>2025-05-11T16:07:56Z</time>
      </trkpt>
      <trkpt lat="47.36305" lon="-0.36533">
        <ele>80</ele>
        <time>2025-05-11T16:07:58Z</time>
      </trkpt>
      <trkpt lat="47.36318" lon="-0.36595">
        <ele>83</ele>
        <time>2025-05-11T16:08:08Z</time>
      </trkpt>
      <trkpt lat="47.36332" lon="-0.36601">
        <ele>84</ele>
        <time>2025-05-11T16:08:12Z</time>
      </trkpt>
      <trkpt lat="47.36393" lon="-0.36612">
        <ele>77</ele>
        <time>2025-05-11T16:08:26Z</time>
      </trkpt>
      <trkpt lat="47.36505" lon="-0.36625">
        <ele>71</ele>
        <time>2025-05-11T16:08:52Z</time>
      </trkpt>
      <trkpt lat="47.36535" lon="-0.36624">
        <ele>70</ele>
        <time>2025-05-11T16:08:59Z</time>
      </trkpt>
      <trkpt lat="47.36572" lon="-0.36617">
        <ele>68</ele>
        <time>2025-05-11T16:09:08Z</time>
      </trkpt>
      <trkpt lat="47.36582" lon="-0.36612">
        <ele>67</ele>
        <time>2025-05-11T16:09:10Z</time>
      </trkpt>
      <trkpt lat="47.36589" lon="-0.36601">
        <ele>67</ele>
        <time>2025-05-11T16:09:13Z</time>
      </trkpt>
      <trkpt lat="47.36596" lon="-0.3658">
        <ele>67</ele>
        <time>2025-05-11T16:09:16Z</time>
      </trkpt>
      <trkpt lat="47.36603" lon="-0.36533">
        <ele>67</ele>
        <time>2025-05-11T16:09:24Z</time>
      </trkpt>
      <trkpt lat="47.36607" lon="-0.36521">
        <ele>67</ele>
        <time>2025-05-11T16:09:26Z</time>
      </trkpt>
      <trkpt lat="47.36616" lon="-0.36511">
        <ele>67</ele>
        <time>2025-05-11T16:09:29Z</time>
      </trkpt>
      <trkpt lat="47.36647" lon="-0.36492">
        <ele>66</ele>
        <time>2025-05-11T16:09:37Z</time>
      </trkpt>
      <trkpt lat="47.36669" lon="-0.36482">
        <ele>65</ele>
        <time>2025-05-11T16:09:42Z</time>
      </trkpt>
      <trkpt lat="47.36696" lon="-0.36481">
        <ele>64</ele>
        <time>2025-05-11T16:09:48Z</time>
      </trkpt>
      <trkpt lat="47.36722" lon="-0.36486">
        <ele>62</ele>
        <time>2025-05-11T16:09:54Z</time>
      </trkpt>
      <trkpt lat="47.3675" lon="-0.365">
        <ele>61</ele>
        <time>2025-05-11T16:10:01Z</time>
      </trkpt>
      <trkpt lat="47.36758" lon="-0.36508">
        <ele>61</ele>
        <time>2025-05-11T16:10:04Z</time>
      </trkpt>
      <trkpt lat="47.3676" lon="-0.36519">
        <ele>61</ele>
        <time>2025-05-11T16:10:05Z</time>
      </trkpt>
      <trkpt lat="47.36759" lon="-0.36545">
        <ele>62</ele>
        <time>2025-05-11T16:10:09Z</time>
      </trkpt>
      <trkpt lat="47.36766" lon="-0.36586">
        <ele>63</ele>
        <time>2025-05-11T16:10:16Z</time>
      </trkpt>
      <trkpt lat="47.36765" lon="-0.36618">
        <ele>64</ele>
        <time>2025-05-11T16:10:21Z</time>
      </trkpt>
      <trkpt lat="47.36747" lon="-0.36713">
        <ele>67</ele>
        <time>2025-05-11T16:10:37Z</time>
      </trkpt>
      <trkpt lat="47.36744" lon="-0.36753">
        <ele>68</ele>
        <time>2025-05-11T16:10:43Z</time>
      </trkpt>
      <trkpt lat="47.36748" lon="-0.36758">
        <ele>68</ele>
        <time>2025-05-11T16:10:44Z</time>
      </trkpt>
      <trkpt lat="47.36792" lon="-0.36742">
        <ele>69</ele>
        <time>2025-05-11T16:10:55Z</time>
      </trkpt>
      <trkpt lat="47.36802" lon="-0.36745">
        <ele>69</ele>
        <time>2025-05-11T16:10:57Z</time>
      </trkpt>
      <trkpt lat="47.36815" lon="-0.36763">
        <ele>70</ele>
        <time>2025-05-11T16:11:02Z</time>
      </trkpt>
      <trkpt lat="47.36826" lon="-0.36769">
        <ele>71</ele>
        <time>2025-05-11T16:11:04Z</time>
      </trkpt>
      <trkpt lat="47.3683" lon="-0.36774">
        <ele>71</ele>
        <time>2025-05-11T16:11:06Z</time>
      </trkpt>
      <trkpt lat="47.36862" lon="-0.36867">
        <ele>77</ele>
        <time>2025-05-11T16:11:22Z</time>
      </trkpt>
      <trkpt lat="47.36867" lon="-0.36867">
        <ele>77</ele>
        <time>2025-05-11T16:11:23Z</time>
      </trkpt>
      <trkpt lat="47.37019" lon="-0.36759">
        <ele>81</ele>
        <time>2025-05-11T16:12:03Z</time>
      </trkpt>
      <trkpt lat="47.3703" lon="-0.36755">
        <ele>81</ele>
        <time>2025-05-11T16:12:05Z</time>
      </trkpt>
      <trkpt lat="47.37035" lon="-0.36761">
        <ele>81</ele>
        <time>2025-05-11T16:12:07Z</time>
      </trkpt>
      <trkpt lat="47.37057" lon="-0.36818">
        <ele>84</ele>
        <time>2025-05-11T16:12:17Z</time>
      </trkpt>
      <trkpt lat="47.37085" lon="-0.36865">
        <ele>86</ele>
        <time>2025-05-11T16:12:27Z</time>
      </trkpt>
      <trkpt lat="47.37146" lon="-0.37">
        <ele>85</ele>
        <time>2025-05-11T16:12:53Z</time>
      </trkpt>
      <trkpt lat="47.37149" lon="-0.37002">
        <ele>85</ele>
        <time>2025-05-11T16:12:53Z</time>
      </trkpt>
      <trkpt lat="47.3718" lon="-0.36991">
        <ele>85</ele>
        <time>2025-05-11T16:13:01Z</time>
      </trkpt>
      <trkpt lat="47.37207" lon="-0.3699">
        <ele>86</ele>
        <time>2025-05-11T16:13:07Z</time>
      </trkpt>
      <trkpt lat="47.37274" lon="-0.37004">
        <ele>87</ele>
        <time>2025-05-11T16:13:23Z</time>
      </trkpt>
      <trkpt lat="47.37314" lon="-0.37008">
        <ele>87</ele>
        <time>2025-05-11T16:13:32Z</time>
      </trkpt>
      <trkpt lat="47.37342" lon="-0.37007">
        <ele>86</ele>
        <time>2025-05-11T16:13:39Z</time>
      </trkpt>
      <trkpt lat="47.3737" lon="-0.37">
        <ele>85</ele>
        <time>2025-05-11T16:13:46Z</time>
      </trkpt>
      <trkpt lat="47.37424" lon="-0.36975">
        <ele>83</ele>
        <time>2025-05-11T16:13:59Z</time>
      </trkpt>
      <trkpt lat="47.37469" lon="-0.36947">
        <ele>83</ele>
        <time>2025-05-11T16:14:10Z</time>
      </trkpt>
      <trkpt lat="47.37469" lon="-0.36935">
        <ele>83</ele>
        <time>2025-05-11T16:14:12Z</time>
      </trkpt>
      <trkpt lat="47.37407" lon="-0.36761">
        <ele>80</ele>
        <time>2025-05-11T16:14:43Z</time>
      </trkpt>
      <trkpt lat="47.37406" lon="-0.36737">
        <ele>80</ele>
        <time>2025-05-11T16:14:47Z</time>
      </trkpt>
      <trkpt lat="47.37415" lon="-0.3664">
        <ele>79</ele>
        <time>2025-05-11T16:15:02Z</time>
      </trkpt>
      <trkpt lat="47.37419" lon="-0.36618">
        <ele>78</ele>
        <time>2025-05-11T16:15:06Z</time>
      </trkpt>
      <trkpt lat="47.37423" lon="-0.36609">
        <ele>78</ele>
        <time>2025-05-11T16:15:08Z</time>
      </trkpt>
      <trkpt lat="47.3743" lon="-0.36604">
        <ele>78</ele>
        <time>2025-05-11T16:15:10Z</time>
      </trkpt>
      <trkpt lat="47.37512" lon="-0.36564">
        <ele>79</ele>
        <time>2025-05-11T16:15:30Z</time>
      </trkpt>
      <trkpt lat="47.37516" lon="-0.36554">
        <ele>78</ele>
        <time>2025-05-11T16:15:32Z</time>
      </trkpt>
      <trkpt lat="47.37516" lon="-0.36538">
        <ele>78</ele>
        <time>2025-05-11T16:15:34Z</time>
      </trkpt>
      <trkpt lat="47.37513" lon="-0.36516">
        <ele>76</ele>
        <time>2025-05-11T16:15:38Z</time>
      </trkpt>
      <trkpt lat="47.37506" lon="-0.36502">
        <ele>76</ele>
        <time>2025-05-11T16:15:40Z</time>
      </trkpt>
      <trkpt lat="47.37499" lon="-0.36498">
        <ele>76</ele>
        <time>2025-05-11T16:15:42Z</time>
      </trkpt>
      <trkpt lat="47.37462" lon="-0.36506">
        <ele>74</ele>
        <time>2025-05-11T16:15:51Z</time>
      </trkpt>
      <trkpt lat="47.37466" lon="-0.36484">
        <ele>73</ele>
        <time>2025-05-11T16:15:54Z</time>
      </trkpt>
      <trkpt lat="47.37474" lon="-0.36474">
        <ele>73</ele>
        <time>2025-05-11T16:15:57Z</time>
      </trkpt>
      <trkpt lat="47.37497" lon="-0.36458">
        <ele>73</ele>
        <time>2025-05-11T16:16:03Z</time>
      </trkpt>
      <trkpt lat="47.37522" lon="-0.36435">
        <ele>71</ele>
        <time>2025-05-11T16:16:10Z</time>
      </trkpt>
      <trkpt lat="47.37543" lon="-0.36428">
        <ele>71</ele>
        <time>2025-05-11T16:16:15Z</time>
      </trkpt>
      <trkpt lat="47.37551" lon="-0.36423">
        <ele>70</ele>
        <time>2025-05-11T16:16:17Z</time>
      </trkpt>
      <trkpt lat="47.37581" lon="-0.3638">
        <ele>67</ele>
        <time>2025-05-11T16:16:27Z</time>
      </trkpt>
      <trkpt lat="47.37591" lon="-0.36372">
        <ele>67</ele>
        <time>2025-05-11T16:16:29Z</time>
      </trkpt>
      <trkpt lat="47.37604" lon="-0.36367">
        <ele>66</ele>
        <time>2025-05-11T16:16:32Z</time>
      </trkpt>
      <trkpt lat="47.37609" lon="-0.36362">
        <ele>66</ele>
        <time>2025-05-11T16:16:34Z</time>
      </trkpt>
      <trkpt lat="47.37617" lon="-0.36341">
        <ele>65</ele>
        <time>2025-05-11T16:16:38Z</time>
      </trkpt>
      <trkpt lat="47.37623" lon="-0.36335">
        <ele>65</ele>
        <time>2025-05-11T16:16:39Z</time>
      </trkpt>
      <trkpt lat="47.37632" lon="-0.36335">
        <ele>65</ele>
        <time>2025-05-11T16:16:41Z</time>
      </trkpt>
      <trkpt lat="47.37635" lon="-0.36338">
        <ele>65</ele>
        <time>2025-05-11T16:16:42Z</time>
      </trkpt>
      <trkpt lat="47.37637" lon="-0.36347">
        <ele>65</ele>
        <time>2025-05-11T16:16:44Z</time>
      </trkpt>
      <trkpt lat="47.37636" lon="-0.36459">
        <ele>70</ele>
        <time>2025-05-11T16:17:01Z</time>
      </trkpt>
      <trkpt lat="47.37642" lon="-0.36487">
        <ele>71</ele>
        <time>2025-05-11T16:17:06Z</time>
      </trkpt>
      <trkpt lat="47.37644" lon="-0.36521">
        <ele>73</ele>
        <time>2025-05-11T16:17:11Z</time>
      </trkpt>
      <trkpt lat="47.37647" lon="-0.36527">
        <ele>74</ele>
        <time>2025-05-11T16:17:13Z</time>
      </trkpt>
      <trkpt lat="47.37652" lon="-0.36529">
        <ele>74</ele>
        <time>2025-05-11T16:17:14Z</time>
      </trkpt>
      <trkpt lat="47.37799" lon="-0.36511">
        <ele>73</ele>
        <time>2025-05-11T16:17:48Z</time>
      </trkpt>
      <trkpt lat="47.37809" lon="-0.36511">
        <ele>73</ele>
        <time>2025-05-11T16:17:51Z</time>
      </trkpt>
      <trkpt lat="47.37814" lon="-0.36516">
        <ele>74</ele>
        <time>2025-05-11T16:17:52Z</time>
      </trkpt>
      <trkpt lat="47.37815" lon="-0.36524">
        <ele>74</ele>
        <time>2025-05-11T16:17:53Z</time>
      </trkpt>
      <trkpt lat="47.37811" lon="-0.36536">
        <ele>75</ele>
        <time>2025-05-11T16:17:55Z</time>
      </trkpt>
      <trkpt lat="47.37794" lon="-0.36539">
        <ele>75</ele>
        <time>2025-05-11T16:17:59Z</time>
      </trkpt>
      <trkpt lat="47.37791" lon="-0.36541">
        <ele>75</ele>
        <time>2025-05-11T16:18:00Z</time>
      </trkpt>
      <trkpt lat="47.37788" lon="-0.36549">
        <ele>75</ele>
        <time>2025-05-11T16:18:02Z</time>
      </trkpt>
      <trkpt lat="47.37792" lon="-0.36791">
        <ele>82</ele>
        <time>2025-05-11T16:18:40Z</time>
      </trkpt>
      <trkpt lat="47.37797" lon="-0.36802">
        <ele>82</ele>
        <time>2025-05-11T16:18:42Z</time>
      </trkpt>
      <trkpt lat="47.37801" lon="-0.36803">
        <ele>82</ele>
        <time>2025-05-11T16:18:43Z</time>
      </trkpt>
      <trkpt lat="47.37873" lon="-0.36786">
        <ele>82</ele>
        <time>2025-05-11T16:19:00Z</time>
      </trkpt>
      <trkpt lat="47.37909" lon="-0.36773">
        <ele>82</ele>
        <time>2025-05-11T16:19:09Z</time>
      </trkpt>
      <trkpt lat="47.37955" lon="-0.36746">
        <ele>82</ele>
        <time>2025-05-11T16:19:20Z</time>
      </trkpt>
      <trkpt lat="47.38" lon="-0.36704">
        <ele>82</ele>
        <time>2025-05-11T16:19:33Z</time>
      </trkpt>
      <trkpt lat="47.38019" lon="-0.36691">
        <ele>82</ele>
        <time>2025-05-11T16:19:38Z</time>
      </trkpt>
      <trkpt lat="47.38026" lon="-0.36683">
        <ele>83</ele>
        <time>2025-05-11T16:19:40Z</time>
      </trkpt>
      <trkpt lat="47.38081" lon="-0.36555">
        <ele>83</ele>
        <time>2025-05-11T16:20:04Z</time>
      </trkpt>
      <trkpt lat="47.38156" lon="-0.36405">
        <ele>83</ele>
        <time>2025-05-11T16:20:33Z</time>
      </trkpt>
      <trkpt lat="47.38191" lon="-0.36344">
        <ele>83</ele>
        <time>2025-05-11T16:20:46Z</time>
      </trkpt>
      <trkpt lat="47.38199" lon="-0.36321">
        <ele>83</ele>
        <time>2025-05-11T16:20:50Z</time>
      </trkpt>
      <trkpt lat="47.38197" lon="-0.36308">
        <ele>83</ele>
        <time>2025-05-11T16:20:52Z</time>
      </trkpt>
      <trkpt lat="47.38177" lon="-0.36268">
        <ele>84</ele>
        <time>2025-05-11T16:21:00Z</time>
      </trkpt>
      <trkpt lat="47.38173" lon="-0.36255">
        <ele>84</ele>
        <time>2025-05-11T16:21:02Z</time>
      </trkpt>
      <trkpt lat="47.38175" lon="-0.36154">
        <ele>84</ele>
        <time>2025-05-11T16:21:18Z</time>
      </trkpt>
      <trkpt lat="47.38174" lon="-0.36023">
        <ele>83</ele>
        <time>2025-05-11T16:21:39Z</time>
      </trkpt>
      <trkpt lat="47.38172" lon="-0.36005">
        <ele>82</ele>
        <time>2025-05-11T16:21:42Z</time>
      </trkpt>
      <trkpt lat="47.38125" lon="-0.35789">
        <ele>72</ele>
        <time>2025-05-11T16:22:17Z</time>
      </trkpt>
      <trkpt lat="47.38125" lon="-0.35779">
        <ele>72</ele>
        <time>2025-05-11T16:22:19Z</time>
      </trkpt>
      <trkpt lat="47.3813" lon="-0.35773">
        <ele>72</ele>
        <time>2025-05-11T16:22:21Z</time>
      </trkpt>
      <trkpt lat="47.38192" lon="-0.35791">
        <ele>76</ele>
        <time>2025-05-11T16:22:35Z</time>
      </trkpt>
      <trkpt lat="47.38228" lon="-0.35806">
        <ele>78</ele>
        <time>2025-05-11T16:22:44Z</time>
      </trkpt>
      <trkpt lat="47.3828" lon="-0.35823">
        <ele>79</ele>
        <time>2025-05-11T16:22:57Z</time>
      </trkpt>
      <trkpt lat="47.38382" lon="-0.35852">
        <ele>77</ele>
        <time>2025-05-11T16:23:21Z</time>
      </trkpt>
      <trkpt lat="47.38444" lon="-0.35866">
        <ele>76</ele>
        <time>2025-05-11T16:23:35Z</time>
      </trkpt>
      <trkpt lat="47.38502" lon="-0.35889">
        <ele>75</ele>
        <time>2025-05-11T16:23:49Z</time>
      </trkpt>
      <trkpt lat="47.38648" lon="-0.35952">
        <ele>73</ele>
        <time>2025-05-11T16:24:25Z</time>
      </trkpt>
      <trkpt lat="47.38673" lon="-0.3596">
        <ele>73</ele>
        <time>2025-05-11T16:24:31Z</time>
      </trkpt>
      <trkpt lat="47.38684" lon="-0.35967">
        <ele>73</ele>
        <time>2025-05-11T16:24:34Z</time>
      </trkpt>
      <trkpt lat="47.38709" lon="-0.35999">
        <ele>72</ele>
        <time>2025-05-11T16:24:41Z</time>
      </trkpt>
      <trkpt lat="47.38726" lon="-0.36015">
        <ele>72</ele>
        <time>2025-05-11T16:24:46Z</time>
      </trkpt>
      <trkpt lat="47.3877" lon="-0.36033">
        <ele>72</ele>
        <time>2025-05-11T16:24:57Z</time>
      </trkpt>
      <trkpt lat="47.38797" lon="-0.36034">
        <ele>71</ele>
        <time>2025-05-11T16:25:03Z</time>
      </trkpt>
      <trkpt lat="47.38827" lon="-0.36043">
        <ele>71</ele>
        <time>2025-05-11T16:25:10Z</time>
      </trkpt>
      <trkpt lat="47.38913" lon="-0.36086">
        <ele>70</ele>
        <time>2025-05-11T16:25:31Z</time>
      </trkpt>
      <trkpt lat="47.38948" lon="-0.36106">
        <ele>70</ele>
        <time>2025-05-11T16:25:40Z</time>
      </trkpt>
      <trkpt lat="47.38955" lon="-0.36107">
        <ele>70</ele>
        <time>2025-05-11T16:25:42Z</time>
      </trkpt>
      <trkpt lat="47.38959" lon="-0.36102">
        <ele>70</ele>
        <time>2025-05-11T16:25:43Z</time>
      </trkpt>
      <trkpt lat="47.38958" lon="-0.36094">
        <ele>70</ele>
        <time>2025-05-11T16:25:44Z</time>
      </trkpt>
      <trkpt lat="47.38878" lon="-0.35869">
        <ele>71</ele>
        <time>2025-05-11T16:26:25Z</time>
      </trkpt>
      <trkpt lat="47.38875" lon="-0.35857">
        <ele>71</ele>
        <time>2025-05-11T16:26:27Z</time>
      </trkpt>
      <trkpt lat="47.38876" lon="-0.35851">
        <ele>71</ele>
        <time>2025-05-11T16:26:28Z</time>
      </trkpt>
      <trkpt lat="47.38889" lon="-0.35832">
        <ele>72</ele>
        <time>2025-05-11T16:26:32Z</time>
      </trkpt>
      <trkpt lat="47.39009" lon="-0.35722">
        <ele>77</ele>
        <time>2025-05-11T16:27:05Z</time>
      </trkpt>
      <trkpt lat="47.39067" lon="-0.35675">
        <ele>79</ele>
        <time>2025-05-11T16:27:20Z</time>
      </trkpt>
      <trkpt lat="47.39127" lon="-0.35636">
        <ele>78</ele>
        <time>2025-05-11T16:27:36Z</time>
      </trkpt>
      <trkpt lat="47.39217" lon="-0.35606">
        <ele>77</ele>
        <time>2025-05-11T16:27:57Z</time>
      </trkpt>
      <trkpt lat="47.39408" lon="-0.35534">
        <ele>73</ele>
        <time>2025-05-11T16:28:43Z</time>
      </trkpt>
      <trkpt lat="47.39434" lon="-0.35527">
        <ele>73</ele>
        <time>2025-05-11T16:28:49Z</time>
      </trkpt>
      <trkpt lat="47.39465" lon="-0.35523">
        <ele>72</ele>
        <time>2025-05-11T16:28:57Z</time>
      </trkpt>
      <trkpt lat="47.39531" lon="-0.3552">
        <ele>70</ele>
        <time>2025-05-11T16:29:12Z</time>
      </trkpt>
      <trkpt lat="47.39566" lon="-0.35521">
        <ele>69</ele>
        <time>2025-05-11T16:29:20Z</time>
      </trkpt>
      <trkpt lat="47.39665" lon="-0.3554">
        <ele>69</ele>
        <time>2025-05-11T16:29:44Z</time>
      </trkpt>
      <trkpt lat="47.39693" lon="-0.35544">
        <ele>70</ele>
        <time>2025-05-11T16:29:50Z</time>
      </trkpt>
      <trkpt lat="47.39722" lon="-0.35544">
        <ele>71</ele>
        <time>2025-05-11T16:29:57Z</time>
      </trkpt>
      <trkpt lat="47.3975" lon="-0.35539">
        <ele>73</ele>
        <time>2025-05-11T16:30:03Z</time>
      </trkpt>
      <trkpt lat="47.39846" lon="-0.35513">
        <ele>74</ele>
        <time>2025-05-11T16:30:26Z</time>
      </trkpt>
      <trkpt lat="47.39877" lon="-0.35501">
        <ele>74</ele>
        <time>2025-05-11T16:30:34Z</time>
      </trkpt>
      <trkpt lat="47.39901" lon="-0.35495">
        <ele>74</ele>
        <time>2025-05-11T16:30:39Z</time>
      </trkpt>
      <trkpt lat="47.40001" lon="-0.35487">
        <ele>76</ele>
        <time>2025-05-11T16:31:03Z</time>
      </trkpt>
      <trkpt lat="47.40012" lon="-0.35489">
        <ele>76</ele>
        <time>2025-05-11T16:31:05Z</time>
      </trkpt>
      <trkpt lat="47.40038" lon="-0.35502">
        <ele>76</ele>
        <time>2025-05-11T16:31:12Z</time>
      </trkpt>
      <trkpt lat="47.40075" lon="-0.35514">
        <ele>75</ele>
        <time>2025-05-11T16:31:21Z</time>
      </trkpt>
      <trkpt lat="47.40104" lon="-0.35532">
        <ele>75</ele>
        <time>2025-05-11T16:31:28Z</time>
      </trkpt>
      <trkpt lat="47.40125" lon="-0.35542">
        <ele>75</ele>
        <time>2025-05-11T16:31:33Z</time>
      </trkpt>
      <trkpt lat="47.4013" lon="-0.3555">
        <ele>75</ele>
        <time>2025-05-11T16:31:35Z</time>
      </trkpt>
      <trkpt lat="47.40131" lon="-0.35557">
        <ele>75</ele>
        <time>2025-05-11T16:31:36Z</time>
      </trkpt>
      <trkpt lat="47.40127" lon="-0.35588">
        <ele>74</ele>
        <time>2025-05-11T16:31:41Z</time>
      </trkpt>
      <trkpt lat="47.40124" lon="-0.35603">
        <ele>74</ele>
        <time>2025-05-11T16:31:43Z</time>
      </trkpt>
      <trkpt lat="47.40111" lon="-0.35639">
        <ele>74</ele>
        <time>2025-05-11T16:31:50Z</time>
      </trkpt>
      <trkpt lat="47.40105" lon="-0.35672">
        <ele>73</ele>
        <time>2025-05-11T16:31:55Z</time>
      </trkpt>
      <trkpt lat="47.40106" lon="-0.35678">
        <ele>73</ele>
        <time>2025-05-11T16:31:56Z</time>
      </trkpt>
      <trkpt lat="47.40109" lon="-0.35682">
        <ele>73</ele>
        <time>2025-05-11T16:31:57Z</time>
      </trkpt>
      <trkpt lat="47.4012" lon="-0.35688">
        <ele>73</ele>
        <time>2025-05-11T16:32:00Z</time>
      </trkpt>
      <trkpt lat="47.40136" lon="-0.35708">
        <ele>72</ele>
        <time>2025-05-11T16:32:05Z</time>
      </trkpt>
      <trkpt lat="47.4016" lon="-0.35718">
        <ele>71</ele>
        <time>2025-05-11T16:32:11Z</time>
      </trkpt>
      <trkpt lat="47.40164" lon="-0.35724">
        <ele>71</ele>
        <time>2025-05-11T16:32:12Z</time>
      </trkpt>
      <trkpt lat="47.40181" lon="-0.3579">
        <ele>64</ele>
        <time>2025-05-11T16:32:23Z</time>
      </trkpt>
      <trkpt lat="47.40179" lon="-0.358">
        <ele>63</ele>
        <time>2025-05-11T16:32:25Z</time>
      </trkpt>
      <trkpt lat="47.40168" lon="-0.3582">
        <ele>62</ele>
        <time>2025-05-11T16:32:29Z</time>
      </trkpt>
      <trkpt lat="47.40161" lon="-0.35851">
        <ele>58</ele>
        <time>2025-05-11T16:32:34Z</time>
      </trkpt>
      <trkpt lat="47.40153" lon="-0.35866">
        <ele>56</ele>
        <time>2025-05-11T16:32:37Z</time>
      </trkpt>
      <trkpt lat="47.40147" lon="-0.3587">
        <ele>55</ele>
        <time>2025-05-11T16:32:39Z</time>
      </trkpt>
      <trkpt lat="47.40137" lon="-0.35872">
        <ele>54</ele>
        <time>2025-05-11T16:32:41Z</time>
      </trkpt>
      <trkpt lat="47.40121" lon="-0.35863">
        <ele>55</ele>
        <time>2025-05-11T16:32:45Z</time>
      </trkpt>
      <trkpt lat="47.40099" lon="-0.35859">
        <ele>55</ele>
        <time>2025-05-11T16:32:50Z</time>
      </trkpt>
      <trkpt lat="47.4006" lon="-0.35818">
        <ele>60</ele>
        <time>2025-05-11T16:33:01Z</time>
      </trkpt>
      <trkpt lat="47.40038" lon="-0.35801">
        <ele>61</ele>
        <time>2025-05-11T16:33:07Z</time>
      </trkpt>
      <trkpt lat="47.40028" lon="-0.35796">
        <ele>61</ele>
        <time>2025-05-11T16:33:10Z</time>
      </trkpt>
      <trkpt lat="47.39989" lon="-0.35803">
        <ele>60</ele>
        <time>2025-05-11T16:33:19Z</time>
      </trkpt>
      <trkpt lat="47.39954" lon="-0.35805">
        <ele>61</ele>
        <time>2025-05-11T16:33:27Z</time>
      </trkpt>
      <trkpt lat="47.39941" lon="-0.35801">
        <ele>62</ele>
        <time>2025-05-11T16:33:30Z</time>
      </trkpt>
      <trkpt lat="47.3992" lon="-0.358">
        <ele>63</ele>
        <time>2025-05-11T16:33:35Z</time>
      </trkpt>
      <trkpt lat="47.39909" lon="-0.35802">
        <ele>63</ele>
        <time>2025-05-11T16:33:38Z</time>
      </trkpt>
      <trkpt lat="47.39894" lon="-0.35809">
        <ele>63</ele>
        <time>2025-05-11T16:33:41Z</time>
      </trkpt>
      <trkpt lat="47.39877" lon="-0.35812">
        <ele>64</ele>
        <time>2025-05-11T16:33:45Z</time>
      </trkpt>
      <trkpt lat="47.39863" lon="-0.35811">
        <ele>65</ele>
        <time>2025-05-11T16:33:48Z</time>
      </trkpt>
      <trkpt lat="47.39844" lon="-0.35805">
        <ele>66</ele>
        <time>2025-05-11T16:33:53Z</time>
      </trkpt>
      <trkpt lat="47.39842" lon="-0.3581">
        <ele>66</ele>
        <time>2025-05-11T16:33:54Z</time>
      </trkpt>
      <trkpt lat="47.3984" lon="-0.35833">
        <ele>65</ele>
        <time>2025-05-11T16:33:58Z</time>
      </trkpt>
      <trkpt lat="47.39845" lon="-0.35855">
        <ele>62</ele>
        <time>2025-05-11T16:34:01Z</time>
      </trkpt>
      <trkpt lat="47.39851" lon="-0.35907">
        <ele>54</ele>
        <time>2025-05-11T16:34:10Z</time>
      </trkpt>
      <trkpt lat="47.39852" lon="-0.35977">
        <ele>50</ele>
        <time>2025-05-11T16:34:21Z</time>
      </trkpt>
      <trkpt lat="47.39855" lon="-0.35986">
        <ele>49</ele>
        <time>2025-05-11T16:34:22Z</time>
      </trkpt>
      <trkpt lat="47.39858" lon="-0.35987">
        <ele>49</ele>
        <time>2025-05-11T16:34:23Z</time>
      </trkpt>
      <trkpt lat="47.39883" lon="-0.3598">
        <ele>48</ele>
        <time>2025-05-11T16:34:29Z</time>
      </trkpt>
      <trkpt lat="47.39952" lon="-0.35975">
        <ele>45</ele>
        <time>2025-05-11T16:34:45Z</time>
      </trkpt>
      <trkpt lat="47.39968" lon="-0.35975">
        <ele>44</ele>
        <time>2025-05-11T16:34:49Z</time>
      </trkpt>
      <trkpt lat="47.39992" lon="-0.35981">
        <ele>44</ele>
        <time>2025-05-11T16:34:54Z</time>
      </trkpt>
      <trkpt lat="47.40015" lon="-0.35992">
        <ele>42</ele>
        <time>2025-05-11T16:35:00Z</time>
      </trkpt>
      <trkpt lat="47.4003" lon="-0.36004">
        <ele>41</ele>
        <time>2025-05-11T16:35:04Z</time>
      </trkpt>
      <trkpt lat="47.40058" lon="-0.36031">
        <ele>40</ele>
        <time>2025-05-11T16:35:12Z</time>
      </trkpt>
      <trkpt lat="47.40085" lon="-0.36053">
        <ele>37</ele>
        <time>2025-05-11T16:35:19Z</time>
      </trkpt>
      <trkpt lat="47.40089" lon="-0.36063">
        <ele>37</ele>
        <time>2025-05-11T16:35:21Z</time>
      </trkpt>
      <trkpt lat="47.4009" lon="-0.36093">
        <ele>38</ele>
        <time>2025-05-11T16:35:26Z</time>
      </trkpt>
      <trkpt lat="47.40068" lon="-0.36195">
        <ele>43</ele>
        <time>2025-05-11T16:35:43Z</time>
      </trkpt>
      <trkpt lat="47.40062" lon="-0.36205">
        <ele>44</ele>
        <time>2025-05-11T16:35:45Z</time>
      </trkpt>
      <trkpt lat="47.4004" lon="-0.36217">
        <ele>47</ele>
        <time>2025-05-11T16:35:50Z</time>
      </trkpt>
      <trkpt lat="47.40031" lon="-0.36225">
        <ele>48</ele>
        <time>2025-05-11T16:35:53Z</time>
      </trkpt>
      <trkpt lat="47.40019" lon="-0.36256">
        <ele>49</ele>
        <time>2025-05-11T16:35:58Z</time>
      </trkpt>
      <trkpt lat="47.39992" lon="-0.36351">
        <ele>50</ele>
        <time>2025-05-11T16:36:15Z</time>
      </trkpt>
      <trkpt lat="47.39976" lon="-0.36446">
        <ele>49</ele>
        <time>2025-05-11T16:36:30Z</time>
      </trkpt>
      <trkpt lat="47.39968" lon="-0.36456">
        <ele>50</ele>
        <time>2025-05-11T16:36:33Z</time>
      </trkpt>
      <trkpt lat="47.39946" lon="-0.36458">
        <ele>52</ele>
        <time>2025-05-11T16:36:38Z</time>
      </trkpt>
      <trkpt lat="47.39933" lon="-0.36476">
        <ele>53</ele>
        <time>2025-05-11T16:36:42Z</time>
      </trkpt>
      <trkpt lat="47.39899" lon="-0.36486">
        <ele>56</ele>
        <time>2025-05-11T16:36:50Z</time>
      </trkpt>
      <trkpt lat="47.39838" lon="-0.36509">
        <ele>62</ele>
        <time>2025-05-11T16:37:05Z</time>
      </trkpt>
      <trkpt lat="47.3984" lon="-0.36566">
        <ele>61</ele>
        <time>2025-05-11T16:37:14Z</time>
      </trkpt>
      <trkpt lat="47.39839" lon="-0.36591">
        <ele>61</ele>
        <time>2025-05-11T16:37:18Z</time>
      </trkpt>
      <trkpt lat="47.39835" lon="-0.36606">
        <ele>61</ele>
        <time>2025-05-11T16:37:20Z</time>
      </trkpt>
      <trkpt lat="47.39821" lon="-0.36645">
        <ele>61</ele>
        <time>2025-05-11T16:37:27Z</time>
      </trkpt>
      <trkpt lat="47.39788" lon="-0.36698">
        <ele>61</ele>
        <time>2025-05-11T16:37:39Z</time>
      </trkpt>
      <trkpt lat="47.39778" lon="-0.3674">
        <ele>60</ele>
        <time>2025-05-11T16:37:46Z</time>
      </trkpt>
      <trkpt lat="47.39772" lon="-0.36749">
        <ele>60</ele>
        <time>2025-05-11T16:37:48Z</time>
      </trkpt>
      <trkpt lat="47.39764" lon="-0.3675">
        <ele>60</ele>
        <time>2025-05-11T16:37:49Z</time>
      </trkpt>
      <trkpt lat="47.39696" lon="-0.36716">
        <ele>65</ele>
        <time>2025-05-11T16:38:06Z</time>
      </trkpt>
      <trkpt lat="47.39687" lon="-0.36716">
        <ele>66</ele>
        <time>2025-05-11T16:38:08Z</time>
      </trkpt>
      <trkpt lat="47.39662" lon="-0.36741">
        <ele>66</ele>
        <time>2025-05-11T16:38:15Z</time>
      </trkpt>
      <trkpt lat="47.39623" lon="-0.36774">
        <ele>67</ele>
        <time>2025-05-11T16:38:26Z</time>
      </trkpt>
      <trkpt lat="47.39615" lon="-0.36787">
        <ele>68</ele>
        <time>2025-05-11T16:38:29Z</time>
      </trkpt>
      <trkpt lat="47.39606" lon="-0.36813">
        <ele>68</ele>
        <time>2025-05-11T16:38:33Z</time>
      </trkpt>
      <trkpt lat="47.39604" lon="-0.36814">
        <ele>68</ele>
        <time>2025-05-11T16:38:34Z</time>
      </trkpt>
      <trkpt lat="47.39602" lon="-0.36809">
        <ele>68</ele>
        <time>2025-05-11T16:38:35Z</time>
      </trkpt>
      <trkpt lat="47.39606" lon="-0.36806">
        <ele>68</ele>
        <time>2025-05-11T16:38:36Z</time>
      </trkpt>
      <trkpt lat="47.3961" lon="-0.36808">
        <ele>68</ele>
        <time>2025-05-11T16:38:37Z</time>
      </trkpt>
      <trkpt lat="47.39666" lon="-0.36847">
        <ele>65</ele>
        <time>2025-05-11T16:38:51Z</time>
      </trkpt>
      <trkpt lat="47.39666" lon="-0.36893">
        <ele>64</ele>
        <time>2025-05-11T16:38:58Z</time>
      </trkpt>
      <trkpt lat="47.39672" lon="-0.36908">
        <ele>64</ele>
        <time>2025-05-11T16:39:01Z</time>
      </trkpt>
      <trkpt lat="47.39759" lon="-0.36989">
        <ele>53</ele>
        <time>2025-05-11T16:39:25Z</time>
      </trkpt>
      <trkpt lat="47.39803" lon="-0.37035">
        <ele>49</ele>
        <time>2025-05-11T16:39:38Z</time>
      </trkpt>
      <trkpt lat="47.39808" lon="-0.37038">
        <ele>48</ele>
        <time>2025-05-11T16:39:39Z</time>
      </trkpt>
      <trkpt lat="47.39818" lon="-0.37039">
        <ele>48</ele>
        <time>2025-05-11T16:39:41Z</time>
      </trkpt>
      <trkpt lat="47.39845" lon="-0.37029">
        <ele>46</ele>
        <time>2025-05-11T16:39:48Z</time>
      </trkpt>
      <trkpt lat="47.39851" lon="-0.37028">
        <ele>45</ele>
        <time>2025-05-11T16:39:49Z</time>
      </trkpt>
      <trkpt lat="47.39856" lon="-0.3703">
        <ele>45</ele>
        <time>2025-05-11T16:39:50Z</time>
      </trkpt>
      <trkpt lat="47.39903" lon="-0.37063">
        <ele>42</ele>
        <time>2025-05-11T16:40:03Z</time>
      </trkpt>
      <trkpt lat="47.3998" lon="-0.37112">
        <ele>36</ele>
        <time>2025-05-11T16:40:22Z</time>
      </trkpt>
      <trkpt lat="47.39985" lon="-0.37118">
        <ele>36</ele>
        <time>2025-05-11T16:40:24Z</time>
      </trkpt>
      <trkpt lat="47.39987" lon="-0.37125">
        <ele>36</ele>
        <time>2025-05-11T16:40:25Z</time>
      </trkpt>
      <trkpt lat="47.39984" lon="-0.37195">
        <ele>33</ele>
        <time>2025-05-11T16:40:36Z</time>
      </trkpt>
      <trkpt lat="47.39996" lon="-0.37253">
        <ele>30</ele>
        <time>2025-05-11T16:40:46Z</time>
      </trkpt>
      <trkpt lat="47.39991" lon="-0.3726">
        <ele>30</ele>
        <time>2025-05-11T16:40:47Z</time>
      </trkpt>
      <trkpt lat="47.39941" lon="-0.37286">
        <ele>30</ele>
        <time>2025-05-11T16:41:00Z</time>
      </trkpt>
      <trkpt lat="47.39928" lon="-0.37301">
        <ele>29</ele>
        <time>2025-05-11T16:41:03Z</time>
      </trkpt>
      <trkpt lat="47.3988" lon="-0.37377">
        <ele>28</ele>
        <time>2025-05-11T16:41:20Z</time>
      </trkpt>
      <trkpt lat="47.39874" lon="-0.37404">
        <ele>28</ele>
        <time>2025-05-11T16:41:24Z</time>
      </trkpt>
      <trkpt lat="47.39868" lon="-0.37418">
        <ele>28</ele>
        <time>2025-05-11T16:41:27Z</time>
      </trkpt>
      <trkpt lat="47.39848" lon="-0.37431">
        <ele>28</ele>
        <time>2025-05-11T16:41:32Z</time>
      </trkpt>
      <trkpt lat="47.39808" lon="-0.37451">
        <ele>30</ele>
        <time>2025-05-11T16:41:42Z</time>
      </trkpt>
      <trkpt lat="47.39792" lon="-0.37463">
        <ele>31</ele>
        <time>2025-05-11T16:41:46Z</time>
      </trkpt>
      <trkpt lat="47.39781" lon="-0.37477">
        <ele>31</ele>
        <time>2025-05-11T16:41:50Z</time>
      </trkpt>
      <trkpt lat="47.39767" lon="-0.37513">
        <ele>32</ele>
        <time>2025-05-11T16:41:56Z</time>
      </trkpt>
      <trkpt lat="47.39752" lon="-0.37532">
        <ele>34</ele>
        <time>2025-05-11T16:42:01Z</time>
      </trkpt>
      <trkpt lat="47.39665" lon="-0.37533">
        <ele>43</ele>
        <time>2025-05-11T16:42:21Z</time>
      </trkpt>
      <trkpt lat="47.39642" lon="-0.37526">
        <ele>45</ele>
        <time>2025-05-11T16:42:27Z</time>
      </trkpt>
      <trkpt lat="47.39623" lon="-0.37525">
        <ele>47</ele>
        <time>2025-05-11T16:42:31Z</time>
      </trkpt>
      <trkpt lat="47.39609" lon="-0.3752">
        <ele>48</ele>
        <time>2025-05-11T16:42:34Z</time>
      </trkpt>
      <trkpt lat="47.39586" lon="-0.37527">
        <ele>51</ele>
        <time>2025-05-11T16:42:40Z</time>
      </trkpt>
      <trkpt lat="47.39581" lon="-0.37534">
        <ele>51</ele>
        <time>2025-05-11T16:42:41Z</time>
      </trkpt>
      <trkpt lat="47.39611" lon="-0.37581">
        <ele>48</ele>
        <time>2025-05-11T16:42:52Z</time>
      </trkpt>
      <trkpt lat="47.39627" lon="-0.37642">
        <ele>48</ele>
        <time>2025-05-11T16:43:02Z</time>
      </trkpt>
      <trkpt lat="47.39633" lon="-0.37657">
        <ele>48</ele>
        <time>2025-05-11T16:43:05Z</time>
      </trkpt>
      <trkpt lat="47.39648" lon="-0.37689">
        <ele>47</ele>
        <time>2025-05-11T16:43:11Z</time>
      </trkpt>
      <trkpt lat="47.39667" lon="-0.3772">
        <ele>46</ele>
        <time>2025-05-11T16:43:17Z</time>
      </trkpt>
      <trkpt lat="47.39681" lon="-0.37736">
        <ele>46</ele>
        <time>2025-05-11T16:43:22Z</time>
      </trkpt>
      <trkpt lat="47.39723" lon="-0.37761">
        <ele>44</ele>
        <time>2025-05-11T16:43:32Z</time>
      </trkpt>
      <trkpt lat="47.39766" lon="-0.37793">
        <ele>42</ele>
        <time>2025-05-11T16:43:43Z</time>
      </trkpt>
      <trkpt lat="47.3979" lon="-0.37817">
        <ele>42</ele>
        <time>2025-05-11T16:43:50Z</time>
      </trkpt>
      <trkpt lat="47.3979" lon="-0.37829">
        <ele>42</ele>
        <time>2025-05-11T16:43:52Z</time>
      </trkpt>
      <trkpt lat="47.39781" lon="-0.37856">
        <ele>43</ele>
        <time>2025-05-11T16:43:57Z</time>
      </trkpt>
      <trkpt lat="47.39758" lon="-0.37898">
        <ele>45</ele>
        <time>2025-05-11T16:44:05Z</time>
      </trkpt>
      <trkpt lat="47.39753" lon="-0.37913">
        <ele>46</ele>
        <time>2025-05-11T16:44:08Z</time>
      </trkpt>
      <trkpt lat="47.39765" lon="-0.37937">
        <ele>45</ele>
        <time>2025-05-11T16:44:13Z</time>
      </trkpt>
      <trkpt lat="47.39772" lon="-0.37982">
        <ele>45</ele>
        <time>2025-05-11T16:44:20Z</time>
      </trkpt>
      <trkpt lat="47.39788" lon="-0.38003">
        <ele>44</ele>
        <time>2025-05-11T16:44:25Z</time>
      </trkpt>
      <trkpt lat="47.39792" lon="-0.38019">
        <ele>44</ele>
        <time>2025-05-11T16:44:28Z</time>
      </trkpt>
      <trkpt lat="47.39794" lon="-0.38065">
        <ele>44</ele>
        <time>2025-05-11T16:44:35Z</time>
      </trkpt>
      <trkpt lat="47.39787" lon="-0.38202">
        <ele>44</ele>
        <time>2025-05-11T16:44:57Z</time>
      </trkpt>
      <trkpt lat="47.39796" lon="-0.38208">
        <ele>44</ele>
        <time>2025-05-11T16:44:59Z</time>
      </trkpt>
      <trkpt lat="47.39868" lon="-0.38217">
        <ele>40</ele>
        <time>2025-05-11T16:45:16Z</time>
      </trkpt>
      <trkpt lat="47.39871" lon="-0.38224">
        <ele>40</ele>
        <time>2025-05-11T16:45:17Z</time>
      </trkpt>
      <trkpt lat="47.39782" lon="-0.38301">
        <ele>47</ele>
        <time>2025-05-11T16:45:41Z</time>
      </trkpt>
      <trkpt lat="47.39771" lon="-0.38325">
        <ele>48</ele>
        <time>2025-05-11T16:45:46Z</time>
      </trkpt>
      <trkpt lat="47.39766" lon="-0.38328">
        <ele>48</ele>
        <time>2025-05-11T16:45:47Z</time>
      </trkpt>
      <trkpt lat="47.39749" lon="-0.38323">
        <ele>47</ele>
        <time>2025-05-11T16:45:51Z</time>
      </trkpt>
      <trkpt lat="47.39747" lon="-0.38303">
        <ele>47</ele>
        <time>2025-05-11T16:45:54Z</time>
      </trkpt>
      <trkpt lat="47.39744" lon="-0.38297">
        <ele>47</ele>
        <time>2025-05-11T16:45:56Z</time>
      </trkpt>
      <trkpt lat="47.39712" lon="-0.38276">
        <ele>49</ele>
        <time>2025-05-11T16:46:04Z</time>
      </trkpt>
      <trkpt lat="47.39687" lon="-0.38243">
        <ele>52</ele>
        <time>2025-05-11T16:46:12Z</time>
      </trkpt>
      <trkpt lat="47.39675" lon="-0.38239">
        <ele>53</ele>
        <time>2025-05-11T16:46:14Z</time>
      </trkpt>
      <trkpt lat="47.39652" lon="-0.38244">
        <ele>55</ele>
        <time>2025-05-11T16:46:20Z</time>
      </trkpt>
      <trkpt lat="47.39618" lon="-0.38245">
        <ele>58</ele>
        <time>2025-05-11T16:46:28Z</time>
      </trkpt>
      <trkpt lat="47.39611" lon="-0.38246">
        <ele>59</ele>
        <time>2025-05-11T16:46:29Z</time>
      </trkpt>
      <trkpt lat="47.39605" lon="-0.38252">
        <ele>59</ele>
        <time>2025-05-11T16:46:31Z</time>
      </trkpt>
      <trkpt lat="47.39603" lon="-0.38271">
        <ele>59</ele>
        <time>2025-05-11T16:46:34Z</time>
      </trkpt>
      <trkpt lat="47.39607" lon="-0.38294">
        <ele>58</ele>
        <time>2025-05-11T16:46:38Z</time>
      </trkpt>
      <trkpt lat="47.39612" lon="-0.38365">
        <ele>57</ele>
        <time>2025-05-11T16:46:49Z</time>
      </trkpt>
      <trkpt lat="47.3961" lon="-0.38454">
        <ele>56</ele>
        <time>2025-05-11T16:47:03Z</time>
      </trkpt>
      <trkpt lat="47.39605" lon="-0.38472">
        <ele>55</ele>
        <time>2025-05-11T16:47:06Z</time>
      </trkpt>
      <trkpt lat="47.39598" lon="-0.38479">
        <ele>55</ele>
        <time>2025-05-11T16:47:08Z</time>
      </trkpt>
      <trkpt lat="47.39527" lon="-0.38506">
        <ele>54</ele>
        <time>2025-05-11T16:47:26Z</time>
      </trkpt>
      <trkpt lat="47.39527" lon="-0.38512">
        <ele>54</ele>
        <time>2025-05-11T16:47:26Z</time>
      </trkpt>
      <trkpt lat="47.39563" lon="-0.38592">
        <ele>46</ele>
        <time>2025-05-11T16:47:42Z</time>
      </trkpt>
      <trkpt lat="47.39596" lon="-0.38656">
        <ele>40</ele>
        <time>2025-05-11T16:47:54Z</time>
      </trkpt>
      <trkpt lat="47.39605" lon="-0.38657">
        <ele>40</ele>
        <time>2025-05-11T16:47:56Z</time>
      </trkpt>
      <trkpt lat="47.39651" lon="-0.38638">
        <ele>43</ele>
        <time>2025-05-11T16:48:08Z</time>
      </trkpt>
      <trkpt lat="47.39655" lon="-0.38647">
        <ele>42</ele>
        <time>2025-05-11T16:48:09Z</time>
      </trkpt>
      <trkpt lat="47.39654" lon="-0.38655">
        <ele>41</ele>
        <time>2025-05-11T16:48:11Z</time>
      </trkpt>
      <trkpt lat="47.39657" lon="-0.38625">
        <ele>45</ele>
        <time>2025-05-11T16:48:15Z</time>
      </trkpt>
      <trkpt lat="47.39651" lon="-0.38553">
        <ele>50</ele>
        <time>2025-05-11T16:48:27Z</time>
      </trkpt>
      <trkpt lat="47.39654" lon="-0.38534">
        <ele>51</ele>
        <time>2025-05-11T16:48:30Z</time>
      </trkpt>
      <trkpt lat="47.39661" lon="-0.38512">
        <ele>51</ele>
        <time>2025-05-11T16:48:34Z</time>
      </trkpt>
      <trkpt lat="47.39661" lon="-0.38502">
        <ele>51</ele>
        <time>2025-05-11T16:48:35Z</time>
      </trkpt>
      <trkpt lat="47.39655" lon="-0.38491">
        <ele>52</ele>
        <time>2025-05-11T16:48:38Z</time>
      </trkpt>
      <trkpt lat="47.39623" lon="-0.38479">
        <ele>54</ele>
        <time>2025-05-11T16:48:45Z</time>
      </trkpt>
      <trkpt lat="47.39613" lon="-0.38471">
        <ele>55</ele>
        <time>2025-05-11T16:48:48Z</time>
      </trkpt>
      <trkpt lat="47.3953" lon="-0.38504">
        <ele>55</ele>
        <time>2025-05-11T16:49:08Z</time>
      </trkpt>
      <trkpt lat="47.39522" lon="-0.38514">
        <ele>53</ele>
        <time>2025-05-11T16:49:10Z</time>
      </trkpt>
      <trkpt lat="47.39487" lon="-0.3853">
        <ele>51</ele>
        <time>2025-05-11T16:49:19Z</time>
      </trkpt>
      <trkpt lat="47.39438" lon="-0.38545">
        <ele>47</ele>
        <time>2025-05-11T16:49:31Z</time>
      </trkpt>
      <trkpt lat="47.39427" lon="-0.38555">
        <ele>45</ele>
        <time>2025-05-11T16:49:34Z</time>
      </trkpt>
      <trkpt lat="47.39398" lon="-0.38606">
        <ele>45</ele>
        <time>2025-05-11T16:49:44Z</time>
      </trkpt>
      <trkpt lat="47.39367" lon="-0.3863">
        <ele>48</ele>
        <time>2025-05-11T16:49:52Z</time>
      </trkpt>
      <trkpt lat="47.39356" lon="-0.38631">
        <ele>49</ele>
        <time>2025-05-11T16:49:55Z</time>
      </trkpt>
      <trkpt lat="47.39323" lon="-0.38593">
        <ele>50</ele>
        <time>2025-05-11T16:50:05Z</time>
      </trkpt>
      <trkpt lat="47.393" lon="-0.38547">
        <ele>53</ele>
        <time>2025-05-11T16:50:14Z</time>
      </trkpt>
      <trkpt lat="47.39286" lon="-0.38531">
        <ele>55</ele>
        <time>2025-05-11T16:50:18Z</time>
      </trkpt>
      <trkpt lat="47.39228" lon="-0.38508">
        <ele>61</ele>
        <time>2025-05-11T16:50:32Z</time>
      </trkpt>
      <trkpt lat="47.39208" lon="-0.38494">
        <ele>62</ele>
        <time>2025-05-11T16:50:37Z</time>
      </trkpt>
      <trkpt lat="47.39175" lon="-0.38476">
        <ele>63</ele>
        <time>2025-05-11T16:50:45Z</time>
      </trkpt>
      <trkpt lat="47.39137" lon="-0.38469">
        <ele>65</ele>
        <time>2025-05-11T16:50:54Z</time>
      </trkpt>
      <trkpt lat="47.391" lon="-0.38468">
        <ele>66</ele>
        <time>2025-05-11T16:51:03Z</time>
      </trkpt>
      <trkpt lat="47.39025" lon="-0.38517">
        <ele>70</ele>
        <time>2025-05-11T16:51:22Z</time>
      </trkpt>
      <trkpt lat="47.38992" lon="-0.38536">
        <ele>72</ele>
        <time>2025-05-11T16:51:30Z</time>
      </trkpt>
      <trkpt lat="47.38988" lon="-0.38545">
        <ele>72</ele>
        <time>2025-05-11T16:51:32Z</time>
      </trkpt>
      <trkpt lat="47.38989" lon="-0.38552">
        <ele>72</ele>
        <time>2025-05-11T16:51:33Z</time>
      </trkpt>
      <trkpt lat="47.39031" lon="-0.38659">
        <ele>74</ele>
        <time>2025-05-11T16:51:53Z</time>
      </trkpt>
      <trkpt lat="47.39049" lon="-0.38742">
        <ele>74</ele>
        <time>2025-05-11T16:52:07Z</time>
      </trkpt>
      <trkpt lat="47.39048" lon="-0.38754">
        <ele>74</ele>
        <time>2025-05-11T16:52:08Z</time>
      </trkpt>
      <trkpt lat="47.39043" lon="-0.38758">
        <ele>74</ele>
        <time>2025-05-11T16:52:10Z</time>
      </trkpt>
      <trkpt lat="47.39029" lon="-0.3876">
        <ele>74</ele>
        <time>2025-05-11T16:52:13Z</time>
      </trkpt>
      <trkpt lat="47.38945" lon="-0.38763">
        <ele>76</ele>
        <time>2025-05-11T16:52:33Z</time>
      </trkpt>
      <trkpt lat="47.38908" lon="-0.38761">
        <ele>77</ele>
        <time>2025-05-11T16:52:41Z</time>
      </trkpt>
      <trkpt lat="47.38868" lon="-0.38764">
        <ele>79</ele>
        <time>2025-05-11T16:52:51Z</time>
      </trkpt>
      <trkpt lat="47.38853" lon="-0.38766">
        <ele>80</ele>
        <time>2025-05-11T16:52:54Z</time>
      </trkpt>
      <trkpt lat="47.38848" lon="-0.38777">
        <ele>81</ele>
        <time>2025-05-11T16:52:56Z</time>
      </trkpt>
      <trkpt lat="47.38854" lon="-0.38806">
        <ele>81</ele>
        <time>2025-05-11T16:53:01Z</time>
      </trkpt>
      <trkpt lat="47.38855" lon="-0.38832">
        <ele>82</ele>
        <time>2025-05-11T16:53:05Z</time>
      </trkpt>
      <trkpt lat="47.38862" lon="-0.38867">
        <ele>82</ele>
        <time>2025-05-11T16:53:11Z</time>
      </trkpt>
      <trkpt lat="47.3889" lon="-0.38923">
        <ele>81</ele>
        <time>2025-05-11T16:53:22Z</time>
      </trkpt>
      <trkpt lat="47.38898" lon="-0.38953">
        <ele>80</ele>
        <time>2025-05-11T16:53:27Z</time>
      </trkpt>
      <trkpt lat="47.38908" lon="-0.39007">
        <ele>79</ele>
        <time>2025-05-11T16:53:36Z</time>
      </trkpt>
      <trkpt lat="47.38918" lon="-0.3937">
        <ele>74</ele>
        <time>2025-05-11T16:54:33Z</time>
      </trkpt>
      <trkpt lat="47.3893" lon="-0.39483">
        <ele>76</ele>
        <time>2025-05-11T16:54:51Z</time>
      </trkpt>
      <trkpt lat="47.38941" lon="-0.39555">
        <ele>78</ele>
        <time>2025-05-11T16:55:03Z</time>
      </trkpt>
      <trkpt lat="47.38934" lon="-0.39587">
        <ele>78</ele>
        <time>2025-05-11T16:55:08Z</time>
      </trkpt>
      <trkpt lat="47.38936" lon="-0.39633">
        <ele>79</ele>
        <time>2025-05-11T16:55:16Z</time>
      </trkpt>
      <trkpt lat="47.38925" lon="-0.39749">
        <ele>81</ele>
        <time>2025-05-11T16:55:34Z</time>
      </trkpt>
      <trkpt lat="47.38924" lon="-0.3982">
        <ele>81</ele>
        <time>2025-05-11T16:55:45Z</time>
      </trkpt>
      <trkpt lat="47.38929" lon="-0.39851">
        <ele>81</ele>
        <time>2025-05-11T16:55:51Z</time>
      </trkpt>
      <trkpt lat="47.38938" lon="-0.39859">
        <ele>81</ele>
        <time>2025-05-11T16:55:53Z</time>
      </trkpt>
      <trkpt lat="47.38969" lon="-0.39849">
        <ele>81</ele>
        <time>2025-05-11T16:56:00Z</time>
      </trkpt>
      <trkpt lat="47.39" lon="-0.39853">
        <ele>81</ele>
        <time>2025-05-11T16:56:08Z</time>
      </trkpt>
      <trkpt lat="47.39013" lon="-0.39863">
        <ele>81</ele>
        <time>2025-05-11T16:56:11Z</time>
      </trkpt>
      <trkpt lat="47.39042" lon="-0.39909">
        <ele>82</ele>
        <time>2025-05-11T16:56:21Z</time>
      </trkpt>
      <trkpt lat="47.39051" lon="-0.39918">
        <ele>82</ele>
        <time>2025-05-11T16:56:24Z</time>
      </trkpt>
      <trkpt lat="47.39091" lon="-0.39921">
        <ele>84</ele>
        <time>2025-05-11T16:56:33Z</time>
      </trkpt>
      <trkpt lat="47.39138" lon="-0.3993">
        <ele>83</ele>
        <time>2025-05-11T16:56:44Z</time>
      </trkpt>
      <trkpt lat="47.39145" lon="-0.3994">
        <ele>83</ele>
        <time>2025-05-11T16:56:46Z</time>
      </trkpt>
      <trkpt lat="47.3915" lon="-0.39961">
        <ele>82</ele>
        <time>2025-05-11T16:56:50Z</time>
      </trkpt>
      <trkpt lat="47.3916" lon="-0.39975">
        <ele>82</ele>
        <time>2025-05-11T16:56:53Z</time>
      </trkpt>
      <trkpt lat="47.3918" lon="-0.39987">
        <ele>81</ele>
        <time>2025-05-11T16:56:58Z</time>
      </trkpt>
      <trkpt lat="47.39195" lon="-0.39993">
        <ele>81</ele>
        <time>2025-05-11T16:57:02Z</time>
      </trkpt>
      <trkpt lat="47.39245" lon="-0.40001">
        <ele>78</ele>
        <time>2025-05-11T16:57:13Z</time>
      </trkpt>
      <trkpt lat="47.39261" lon="-0.40007">
        <ele>78</ele>
        <time>2025-05-11T16:57:17Z</time>
      </trkpt>
      <trkpt lat="47.39278" lon="-0.40017">
        <ele>78</ele>
        <time>2025-05-11T16:57:22Z</time>
      </trkpt>
      <trkpt lat="47.39294" lon="-0.40028">
        <ele>77</ele>
        <time>2025-05-11T16:57:26Z</time>
      </trkpt>
      <trkpt lat="47.39325" lon="-0.40058">
        <ele>76</ele>
        <time>2025-05-11T16:57:34Z</time>
      </trkpt>
      <trkpt lat="47.39333" lon="-0.40078">
        <ele>76</ele>
        <time>2025-05-11T16:57:38Z</time>
      </trkpt>
      <trkpt lat="47.3932" lon="-0.40212">
        <ele>77</ele>
        <time>2025-05-11T16:57:59Z</time>
      </trkpt>
      <trkpt lat="47.39319" lon="-0.40246">
        <ele>77</ele>
        <time>2025-05-11T16:58:05Z</time>
      </trkpt>
      <trkpt lat="47.39323" lon="-0.40288">
        <ele>76</ele>
        <time>2025-05-11T16:58:11Z</time>
      </trkpt>
      <trkpt lat="47.39322" lon="-0.40306">
        <ele>76</ele>
        <time>2025-05-11T16:58:14Z</time>
      </trkpt>
      <trkpt lat="47.39307" lon="-0.40417">
        <ele>75</ele>
        <time>2025-05-11T16:58:32Z</time>
      </trkpt>
      <trkpt lat="47.39294" lon="-0.4047">
        <ele>74</ele>
        <time>2025-05-11T16:58:41Z</time>
      </trkpt>
      <trkpt lat="47.39291" lon="-0.4053">
        <ele>74</ele>
        <time>2025-05-11T16:58:51Z</time>
      </trkpt>
      <trkpt lat="47.39289" lon="-0.40535">
        <ele>74</ele>
        <time>2025-05-11T16:58:52Z</time>
      </trkpt>
      <trkpt lat="47.39283" lon="-0.40539">
        <ele>74</ele>
        <time>2025-05-11T16:58:53Z</time>
      </trkpt>
      <trkpt lat="47.39203" lon="-0.40548">
        <ele>78</ele>
        <time>2025-05-11T16:59:12Z</time>
      </trkpt>
      <trkpt lat="47.39198" lon="-0.40549">
        <ele>78</ele>
        <time>2025-05-11T16:59:13Z</time>
      </trkpt>
      <trkpt lat="47.39193" lon="-0.40556">
        <ele>78</ele>
        <time>2025-05-11T16:59:15Z</time>
      </trkpt>
      <trkpt lat="47.39195" lon="-0.40567">
        <ele>77</ele>
        <time>2025-05-11T16:59:16Z</time>
      </trkpt>
      <trkpt lat="47.39217" lon="-0.40625">
        <ele>77</ele>
        <time>2025-05-11T16:59:27Z</time>
      </trkpt>
      <trkpt lat="47.39249" lon="-0.40695">
        <ele>76</ele>
        <time>2025-05-11T16:59:40Z</time>
      </trkpt>
      <trkpt lat="47.39277" lon="-0.40774">
        <ele>76</ele>
        <time>2025-05-11T16:59:54Z</time>
      </trkpt>
      <trkpt lat="47.39301" lon="-0.41021">
        <ele>80</ele>
        <time>2025-05-11T17:00:34Z</time>
      </trkpt>
      <trkpt lat="47.39299" lon="-0.4103">
        <ele>81</ele>
        <time>2025-05-11T17:00:35Z</time>
      </trkpt>
      <trkpt lat="47.39293" lon="-0.41033">
        <ele>81</ele>
        <time>2025-05-11T17:00:37Z</time>
      </trkpt>
      <trkpt lat="47.39271" lon="-0.41037">
        <ele>81</ele>
        <time>2025-05-11T17:00:42Z</time>
      </trkpt>
      <trkpt lat="47.3924" lon="-0.41038">
        <ele>81</ele>
        <time>2025-05-11T17:00:49Z</time>
      </trkpt>
      <trkpt lat="47.39224" lon="-0.41045">
        <ele>82</ele>
        <time>2025-05-11T17:00:53Z</time>
      </trkpt>
      <trkpt lat="47.39229" lon="-0.41105">
        <ele>83</ele>
        <time>2025-05-11T17:01:03Z</time>
      </trkpt>
      <trkpt lat="47.39234" lon="-0.41127">
        <ele>83</ele>
        <time>2025-05-11T17:01:06Z</time>
      </trkpt>
      <trkpt lat="47.39232" lon="-0.41136">
        <ele>83</ele>
        <time>2025-05-11T17:01:08Z</time>
      </trkpt>
      <trkpt lat="47.3922" lon="-0.4116">
        <ele>82</ele>
        <time>2025-05-11T17:01:13Z</time>
      </trkpt>
      <trkpt lat="47.39215" lon="-0.4118">
        <ele>82</ele>
        <time>2025-05-11T17:01:16Z</time>
      </trkpt>
      <trkpt lat="47.39201" lon="-0.4133">
        <ele>82</ele>
        <time>2025-05-11T17:01:40Z</time>
      </trkpt>
      <trkpt lat="47.39196" lon="-0.41346">
        <ele>82</ele>
        <time>2025-05-11T17:01:43Z</time>
      </trkpt>
      <trkpt lat="47.392" lon="-0.41344">
        <ele>82</ele>
        <time>2025-05-11T17:01:44Z</time>
      </trkpt>
      <trkpt lat="47.39208" lon="-0.41321">
        <ele>82</ele>
        <time>2025-05-11T17:01:48Z</time>
      </trkpt>
      <trkpt lat="47.39214" lon="-0.4129">
        <ele>82</ele>
        <time>2025-05-11T17:01:53Z</time>
      </trkpt>
      <trkpt lat="47.39216" lon="-0.41253">
        <ele>82</ele>
        <time>2025-05-11T17:01:59Z</time>
      </trkpt>
      <trkpt lat="47.39221" lon="-0.41244">
        <ele>82</ele>
        <time>2025-05-11T17:02:01Z</time>
      </trkpt>
      <trkpt lat="47.39227" lon="-0.41239">
        <ele>83</ele>
        <time>2025-05-11T17:02:02Z</time>
      </trkpt>
      <trkpt lat="47.39272" lon="-0.41233">
        <ele>85</ele>
        <time>2025-05-11T17:02:13Z</time>
      </trkpt>
      <trkpt lat="47.39285" lon="-0.41229">
        <ele>85</ele>
        <time>2025-05-11T17:02:16Z</time>
      </trkpt>
      <trkpt lat="47.39333" lon="-0.41227">
        <ele>87</ele>
        <time>2025-05-11T17:02:27Z</time>
      </trkpt>
      <trkpt lat="47.39348" lon="-0.4123">
        <ele>86</ele>
        <time>2025-05-11T17:02:31Z</time>
      </trkpt>
      <trkpt lat="47.39358" lon="-0.41227">
        <ele>86</ele>
        <time>2025-05-11T17:02:33Z</time>
      </trkpt>
      <trkpt lat="47.39368" lon="-0.4123">
        <ele>86</ele>
        <time>2025-05-11T17:02:35Z</time>
      </trkpt>
      <trkpt lat="47.39439" lon="-0.41228">
        <ele>83</ele>
        <time>2025-05-11T17:02:52Z</time>
      </trkpt>
      <trkpt lat="47.39448" lon="-0.41221">
        <ele>83</ele>
        <time>2025-05-11T17:02:54Z</time>
      </trkpt>
      <trkpt lat="47.39452" lon="-0.41204">
        <ele>82</ele>
        <time>2025-05-11T17:02:57Z</time>
      </trkpt>
      <trkpt lat="47.39453" lon="-0.41184">
        <ele>82</ele>
        <time>2025-05-11T17:03:00Z</time>
      </trkpt>
      <trkpt lat="47.39462" lon="-0.41146">
        <ele>81</ele>
        <time>2025-05-11T17:03:07Z</time>
      </trkpt>
      <trkpt lat="47.39469" lon="-0.41065">
        <ele>78</ele>
        <time>2025-05-11T17:03:20Z</time>
      </trkpt>
      <trkpt lat="47.39472" lon="-0.41059">
        <ele>77</ele>
        <time>2025-05-11T17:03:21Z</time>
      </trkpt>
      <trkpt lat="47.39508" lon="-0.41055">
        <ele>75</ele>
        <time>2025-05-11T17:03:29Z</time>
      </trkpt>
      <trkpt lat="47.39549" lon="-0.4106">
        <ele>72</ele>
        <time>2025-05-11T17:03:39Z</time>
      </trkpt>
      <trkpt lat="47.39554" lon="-0.41068">
        <ele>73</ele>
        <time>2025-05-11T17:03:41Z</time>
      </trkpt>
      <trkpt lat="47.39557" lon="-0.41088">
        <ele>74</ele>
        <time>2025-05-11T17:03:44Z</time>
      </trkpt>
      <trkpt lat="47.39553" lon="-0.41107">
        <ele>75</ele>
        <time>2025-05-11T17:03:47Z</time>
      </trkpt>
      <trkpt lat="47.39556" lon="-0.41123">
        <ele>75</ele>
        <time>2025-05-11T17:03:50Z</time>
      </trkpt>
      <trkpt lat="47.39556" lon="-0.41163">
        <ele>76</ele>
        <time>2025-05-11T17:03:56Z</time>
      </trkpt>
      <trkpt lat="47.39548" lon="-0.41177">
        <ele>76</ele>
        <time>2025-05-11T17:03:59Z</time>
      </trkpt>
      <trkpt lat="47.39549" lon="-0.41196">
        <ele>75</ele>
        <time>2025-05-11T17:04:02Z</time>
      </trkpt>
      <trkpt lat="47.39534" lon="-0.41279">
        <ele>75</ele>
        <time>2025-05-11T17:04:15Z</time>
      </trkpt>
      <trkpt lat="47.39556" lon="-0.4129">
        <ele>70</ele>
        <time>2025-05-11T17:04:21Z</time>
      </trkpt>
      <trkpt lat="47.39567" lon="-0.41321">
        <ele>66</ele>
        <time>2025-05-11T17:04:26Z</time>
      </trkpt>
      <trkpt lat="47.3957" lon="-0.41348">
        <ele>64</ele>
        <time>2025-05-11T17:04:31Z</time>
      </trkpt>
      <trkpt lat="47.39566" lon="-0.41355">
        <ele>65</ele>
        <time>2025-05-11T17:04:32Z</time>
      </trkpt>
      <trkpt lat="47.39565" lon="-0.41364">
        <ele>65</ele>
        <time>2025-05-11T17:04:34Z</time>
      </trkpt>
      <trkpt lat="47.39567" lon="-0.41393">
        <ele>64</ele>
        <time>2025-05-11T17:04:38Z</time>
      </trkpt>
      <trkpt lat="47.39566" lon="-0.41433">
        <ele>63</ele>
        <time>2025-05-11T17:04:44Z</time>
      </trkpt>
      <trkpt lat="47.39562" lon="-0.41441">
        <ele>64</ele>
        <time>2025-05-11T17:04:46Z</time>
      </trkpt>
      <trkpt lat="47.3955" lon="-0.41444">
        <ele>66</ele>
        <time>2025-05-11T17:04:49Z</time>
      </trkpt>
      <trkpt lat="47.39507" lon="-0.41439">
        <ele>76</ele>
        <time>2025-05-11T17:04:59Z</time>
      </trkpt>
      <trkpt lat="47.39498" lon="-0.41449">
        <ele>78</ele>
        <time>2025-05-11T17:05:02Z</time>
      </trkpt>
      <trkpt lat="47.39483" lon="-0.41486">
        <ele>79</ele>
        <time>2025-05-11T17:05:08Z</time>
      </trkpt>
      <trkpt lat="47.39478" lon="-0.41486">
        <ele>79</ele>
        <time>2025-05-11T17:05:10Z</time>
      </trkpt>
      <trkpt lat="47.39475" lon="-0.41482">
        <ele>80</ele>
        <time>2025-05-11T17:05:10Z</time>
      </trkpt>
      <trkpt lat="47.39469" lon="-0.41462">
        <ele>80</ele>
        <time>2025-05-11T17:05:14Z</time>
      </trkpt>
      <trkpt lat="47.39463" lon="-0.41464">
        <ele>81</ele>
        <time>2025-05-11T17:05:15Z</time>
      </trkpt>
      <trkpt lat="47.39458" lon="-0.41471">
        <ele>81</ele>
        <time>2025-05-11T17:05:17Z</time>
      </trkpt>
      <trkpt lat="47.39437" lon="-0.41462">
        <ele>83</ele>
        <time>2025-05-11T17:05:22Z</time>
      </trkpt>
      <trkpt lat="47.39431" lon="-0.41473">
        <ele>84</ele>
        <time>2025-05-11T17:05:24Z</time>
      </trkpt>
      <trkpt lat="47.39419" lon="-0.4154">
        <ele>83</ele>
        <time>2025-05-11T17:05:35Z</time>
      </trkpt>
      <trkpt lat="47.39411" lon="-0.41611">
        <ele>82</ele>
        <time>2025-05-11T17:05:47Z</time>
      </trkpt>
      <trkpt lat="47.39406" lon="-0.41634">
        <ele>82</ele>
        <time>2025-05-11T17:05:50Z</time>
      </trkpt>
      <trkpt lat="47.39405" lon="-0.41671">
        <ele>81</ele>
        <time>2025-05-11T17:05:56Z</time>
      </trkpt>
      <trkpt lat="47.39402" lon="-0.41678">
        <ele>81</ele>
        <time>2025-05-11T17:05:58Z</time>
      </trkpt>
      <trkpt lat="47.39399" lon="-0.41703">
        <ele>79</ele>
        <time>2025-05-11T17:06:02Z</time>
      </trkpt>
      <trkpt lat="47.39394" lon="-0.41714">
        <ele>79</ele>
        <time>2025-05-11T17:06:04Z</time>
      </trkpt>
      <trkpt lat="47.39394" lon="-0.41726">
        <ele>78</ele>
        <time>2025-05-11T17:06:06Z</time>
      </trkpt>
      <trkpt lat="47.39391" lon="-0.41734">
        <ele>78</ele>
        <time>2025-05-11T17:06:07Z</time>
      </trkpt>
      <trkpt lat="47.39393" lon="-0.41746">
        <ele>77</ele>
        <time>2025-05-11T17:06:09Z</time>
      </trkpt>
      <trkpt lat="47.39387" lon="-0.41762">
        <ele>76</ele>
        <time>2025-05-11T17:06:12Z</time>
      </trkpt>
      <trkpt lat="47.39381" lon="-0.41765">
        <ele>76</ele>
        <time>2025-05-11T17:06:13Z</time>
      </trkpt>
      <trkpt lat="47.39336" lon="-0.4176">
        <ele>77</ele>
        <time>2025-05-11T17:06:24Z</time>
      </trkpt>
      <trkpt lat="47.39295" lon="-0.41749">
        <ele>78</ele>
        <time>2025-05-11T17:06:34Z</time>
      </trkpt>
      <trkpt lat="47.39278" lon="-0.41748">
        <ele>77</ele>
        <time>2025-05-11T17:06:38Z</time>
      </trkpt>
      <trkpt lat="47.39256" lon="-0.41737">
        <ele>78</ele>
        <time>2025-05-11T17:06:43Z</time>
      </trkpt>
      <trkpt lat="47.39202" lon="-0.41729">
        <ele>77</ele>
        <time>2025-05-11T17:06:56Z</time>
      </trkpt>
      <trkpt lat="47.39184" lon="-0.41721">
        <ele>77</ele>
        <time>2025-05-11T17:07:00Z</time>
      </trkpt>
      <trkpt lat="47.3917" lon="-0.41723">
        <ele>76</ele>
        <time>2025-05-11T17:07:03Z</time>
      </trkpt>
      <trkpt lat="47.3916" lon="-0.41737">
        <ele>75</ele>
        <time>2025-05-11T17:07:07Z</time>
      </trkpt>
      <trkpt lat="47.39134" lon="-0.41911">
        <ele>72</ele>
        <time>2025-05-11T17:07:35Z</time>
      </trkpt>
      <trkpt lat="47.39127" lon="-0.42079">
        <ele>69</ele>
        <time>2025-05-11T17:08:01Z</time>
      </trkpt>
      <trkpt lat="47.39127" lon="-0.42115">
        <ele>69</ele>
        <time>2025-05-11T17:08:07Z</time>
      </trkpt>
      <trkpt lat="47.39143" lon="-0.42283">
        <ele>72</ele>
        <time>2025-05-11T17:08:34Z</time>
      </trkpt>
      <trkpt lat="47.39146" lon="-0.42293">
        <ele>72</ele>
        <time>2025-05-11T17:08:36Z</time>
      </trkpt>
      <trkpt lat="47.3915" lon="-0.42297">
        <ele>72</ele>
        <time>2025-05-11T17:08:37Z</time>
      </trkpt>
      <trkpt lat="47.3916" lon="-0.42299">
        <ele>72</ele>
        <time>2025-05-11T17:08:39Z</time>
      </trkpt>
      <trkpt lat="47.39205" lon="-0.42279">
        <ele>70</ele>
        <time>2025-05-11T17:08:50Z</time>
      </trkpt>
      <trkpt lat="47.39312" lon="-0.42239">
        <ele>64</ele>
        <time>2025-05-11T17:09:16Z</time>
      </trkpt>
      <trkpt lat="47.39346" lon="-0.4223">
        <ele>62</ele>
        <time>2025-05-11T17:09:24Z</time>
      </trkpt>
      <trkpt lat="47.39354" lon="-0.42229">
        <ele>62</ele>
        <time>2025-05-11T17:09:26Z</time>
      </trkpt>
      <trkpt lat="47.3936" lon="-0.42231">
        <ele>62</ele>
        <time>2025-05-11T17:09:27Z</time>
      </trkpt>
      <trkpt lat="47.39367" lon="-0.42244">
        <ele>62</ele>
        <time>2025-05-11T17:09:30Z</time>
      </trkpt>
      <trkpt lat="47.39371" lon="-0.42276">
        <ele>64</ele>
        <time>2025-05-11T17:09:35Z</time>
      </trkpt>
      <trkpt lat="47.39366" lon="-0.42357">
        <ele>70</ele>
        <time>2025-05-11T17:09:48Z</time>
      </trkpt>
      <trkpt lat="47.39368" lon="-0.42377">
        <ele>71</ele>
        <time>2025-05-11T17:09:51Z</time>
      </trkpt>
      <trkpt lat="47.39382" lon="-0.4243">
        <ele>73</ele>
        <time>2025-05-11T17:10:00Z</time>
      </trkpt>
      <trkpt lat="47.39386" lon="-0.42457">
        <ele>73</ele>
        <time>2025-05-11T17:10:04Z</time>
      </trkpt>
      <trkpt lat="47.39389" lon="-0.42578">
        <ele>74</ele>
        <time>2025-05-11T17:10:24Z</time>
      </trkpt>
      <trkpt lat="47.39398" lon="-0.42601">
        <ele>75</ele>
        <time>2025-05-11T17:10:28Z</time>
      </trkpt>
      <trkpt lat="47.39423" lon="-0.42629">
        <ele>75</ele>
        <time>2025-05-11T17:10:35Z</time>
      </trkpt>
      <trkpt lat="47.39433" lon="-0.42648">
        <ele>76</ele>
        <time>2025-05-11T17:10:39Z</time>
      </trkpt>
      <trkpt lat="47.39438" lon="-0.42653">
        <ele>77</ele>
        <time>2025-05-11T17:10:40Z</time>
      </trkpt>
      <trkpt lat="47.39449" lon="-0.42655">
        <ele>77</ele>
        <time>2025-05-11T17:10:43Z</time>
      </trkpt>
      <trkpt lat="47.39455" lon="-0.42655">
        <ele>77</ele>
        <time>2025-05-11T17:10:44Z</time>
      </trkpt>
      <trkpt lat="47.3946" lon="-0.42652">
        <ele>78</ele>
        <time>2025-05-11T17:10:46Z</time>
      </trkpt>
      <trkpt lat="47.39478" lon="-0.42633">
        <ele>78</ele>
        <time>2025-05-11T17:10:51Z</time>
      </trkpt>
      <trkpt lat="47.39491" lon="-0.42628">
        <ele>78</ele>
        <time>2025-05-11T17:10:54Z</time>
      </trkpt>
      <trkpt lat="47.39505" lon="-0.42619">
        <ele>78</ele>
        <time>2025-05-11T17:10:57Z</time>
      </trkpt>
      <trkpt lat="47.39549" lon="-0.42602">
        <ele>79</ele>
        <time>2025-05-11T17:11:08Z</time>
      </trkpt>
      <trkpt lat="47.39564" lon="-0.42597">
        <ele>79</ele>
        <time>2025-05-11T17:11:12Z</time>
      </trkpt>
      <trkpt lat="47.39572" lon="-0.42601">
        <ele>80</ele>
        <time>2025-05-11T17:11:14Z</time>
      </trkpt>
      <trkpt lat="47.39581" lon="-0.426">
        <ele>80</ele>
        <time>2025-05-11T17:11:16Z</time>
      </trkpt>
      <trkpt lat="47.39605" lon="-0.4259">
        <ele>80</ele>
        <time>2025-05-11T17:11:22Z</time>
      </trkpt>
      <trkpt lat="47.39644" lon="-0.42584">
        <ele>80</ele>
        <time>2025-05-11T17:11:31Z</time>
      </trkpt>
      <trkpt lat="47.3965" lon="-0.4258">
        <ele>80</ele>
        <time>2025-05-11T17:11:32Z</time>
      </trkpt>
      <trkpt lat="47.39661" lon="-0.42545">
        <ele>79</ele>
        <time>2025-05-11T17:11:38Z</time>
      </trkpt>
      <trkpt lat="47.39666" lon="-0.42484">
        <ele>77</ele>
        <time>2025-05-11T17:11:48Z</time>
      </trkpt>
      <trkpt lat="47.3968" lon="-0.42397">
        <ele>70</ele>
        <time>2025-05-11T17:12:02Z</time>
      </trkpt>
      <trkpt lat="47.3969" lon="-0.42366">
        <ele>68</ele>
        <time>2025-05-11T17:12:08Z</time>
      </trkpt>
      <trkpt lat="47.39714" lon="-0.42307">
        <ele>64</ele>
        <time>2025-05-11T17:12:19Z</time>
      </trkpt>
      <trkpt lat="47.39722" lon="-0.42295">
        <ele>63</ele>
        <time>2025-05-11T17:12:21Z</time>
      </trkpt>
      <trkpt lat="47.39728" lon="-0.42292">
        <ele>63</ele>
        <time>2025-05-11T17:12:23Z</time>
      </trkpt>
      <trkpt lat="47.39792" lon="-0.42293">
        <ele>59</ele>
        <time>2025-05-11T17:12:38Z</time>
      </trkpt>
      <trkpt lat="47.39796" lon="-0.42299">
        <ele>60</ele>
        <time>2025-05-11T17:12:39Z</time>
      </trkpt>
      <trkpt lat="47.39797" lon="-0.42321">
        <ele>62</ele>
        <time>2025-05-11T17:12:42Z</time>
      </trkpt>
      <trkpt lat="47.39802" lon="-0.42337">
        <ele>63</ele>
        <time>2025-05-11T17:12:45Z</time>
      </trkpt>
      <trkpt lat="47.39824" lon="-0.42338">
        <ele>60</ele>
        <time>2025-05-11T17:12:50Z</time>
      </trkpt>
      <trkpt lat="47.39838" lon="-0.42343">
        <ele>59</ele>
        <time>2025-05-11T17:12:54Z</time>
      </trkpt>
      <trkpt lat="47.39855" lon="-0.42338">
        <ele>56</ele>
        <time>2025-05-11T17:12:58Z</time>
      </trkpt>
      <trkpt lat="47.39866" lon="-0.42341">
        <ele>54</ele>
        <time>2025-05-11T17:13:00Z</time>
      </trkpt>
      <trkpt lat="47.39877" lon="-0.42337">
        <ele>52</ele>
        <time>2025-05-11T17:13:03Z</time>
      </trkpt>
      <trkpt lat="47.39884" lon="-0.42341">
        <ele>51</ele>
        <time>2025-05-11T17:13:05Z</time>
      </trkpt>
      <trkpt lat="47.39893" lon="-0.42338">
        <ele>49</ele>
        <time>2025-05-11T17:13:07Z</time>
      </trkpt>
      <trkpt lat="47.39899" lon="-0.42342">
        <ele>48</ele>
        <time>2025-05-11T17:13:09Z</time>
      </trkpt>
      <trkpt lat="47.39911" lon="-0.42376">
        <ele>47</ele>
        <time>2025-05-11T17:13:15Z</time>
      </trkpt>
      <trkpt lat="47.39911" lon="-0.42388">
        <ele>48</ele>
        <time>2025-05-11T17:13:16Z</time>
      </trkpt>
      <trkpt lat="47.39907" lon="-0.42403">
        <ele>49</ele>
        <time>2025-05-11T17:13:19Z</time>
      </trkpt>
      <trkpt lat="47.39909" lon="-0.42414">
        <ele>49</ele>
        <time>2025-05-11T17:13:21Z</time>
      </trkpt>
      <trkpt lat="47.39915" lon="-0.42423">
        <ele>48</ele>
        <time>2025-05-11T17:13:23Z</time>
      </trkpt>
      <trkpt lat="47.39931" lon="-0.42436">
        <ele>45</ele>
        <time>2025-05-11T17:13:27Z</time>
      </trkpt>
      <trkpt lat="47.3996" lon="-0.42446">
        <ele>39</ele>
        <time>2025-05-11T17:13:34Z</time>
      </trkpt>
      <trkpt lat="47.39965" lon="-0.42455">
        <ele>38</ele>
        <time>2025-05-11T17:13:36Z</time>
      </trkpt>
      <trkpt lat="47.39967" lon="-0.42476">
        <ele>38</ele>
        <time>2025-05-11T17:13:39Z</time>
      </trkpt>
      <trkpt lat="47.39965" lon="-0.42481">
        <ele>38</ele>
        <time>2025-05-11T17:13:40Z</time>
      </trkpt>
      <trkpt lat="47.39955" lon="-0.42489">
        <ele>40</ele>
        <time>2025-05-11T17:13:43Z</time>
      </trkpt>
      <trkpt lat="47.39939" lon="-0.42509">
        <ele>43</ele>
        <time>2025-05-11T17:13:48Z</time>
      </trkpt>
      <trkpt lat="47.39936" lon="-0.42532">
        <ele>42</ele>
        <time>2025-05-11T17:13:51Z</time>
      </trkpt>
      <trkpt lat="47.3993" lon="-0.42546">
        <ele>43</ele>
        <time>2025-05-11T17:13:54Z</time>
      </trkpt>
      <trkpt lat="47.39912" lon="-0.42559">
        <ele>45</ele>
        <time>2025-05-11T17:13:59Z</time>
      </trkpt>
      <trkpt lat="47.39896" lon="-0.42565">
        <ele>48</ele>
        <time>2025-05-11T17:14:03Z</time>
      </trkpt>
      <trkpt lat="47.39893" lon="-0.42573">
        <ele>49</ele>
        <time>2025-05-11T17:14:04Z</time>
      </trkpt>
      <trkpt lat="47.39898" lon="-0.42601">
        <ele>46</ele>
        <time>2025-05-11T17:14:09Z</time>
      </trkpt>
      <trkpt lat="47.39896" lon="-0.42619">
        <ele>45</ele>
        <time>2025-05-11T17:14:11Z</time>
      </trkpt>
      <trkpt lat="47.39899" lon="-0.42632">
        <ele>44</ele>
        <time>2025-05-11T17:14:14Z</time>
      </trkpt>
      <trkpt lat="47.39898" lon="-0.42656">
        <ele>43</ele>
        <time>2025-05-11T17:14:17Z</time>
      </trkpt>
      <trkpt lat="47.39922" lon="-0.4269">
        <ele>37</ele>
        <time>2025-05-11T17:14:25Z</time>
      </trkpt>
      <trkpt lat="47.39921" lon="-0.42703">
        <ele>37</ele>
        <time>2025-05-11T17:14:27Z</time>
      </trkpt>
      <trkpt lat="47.39911" lon="-0.42738">
        <ele>39</ele>
        <time>2025-05-11T17:14:33Z</time>
      </trkpt>
      <trkpt lat="47.3991" lon="-0.42771">
        <ele>41</ele>
        <time>2025-05-11T17:14:38Z</time>
      </trkpt>
      <trkpt lat="47.39902" lon="-0.42782">
        <ele>44</ele>
        <time>2025-05-11T17:14:41Z</time>
      </trkpt>
      <trkpt lat="47.39901" lon="-0.42787">
        <ele>45</ele>
        <time>2025-05-11T17:14:42Z</time>
      </trkpt>
      <trkpt lat="47.39906" lon="-0.42823">
        <ele>46</ele>
        <time>2025-05-11T17:14:48Z</time>
      </trkpt>
      <trkpt lat="47.39912" lon="-0.42846">
        <ele>44</ele>
        <time>2025-05-11T17:14:52Z</time>
      </trkpt>
      <trkpt lat="47.3991" lon="-0.42886">
        <ele>43</ele>
        <time>2025-05-11T17:14:58Z</time>
      </trkpt>
      <trkpt lat="47.39923" lon="-0.42914">
        <ele>40</ele>
        <time>2025-05-11T17:15:03Z</time>
      </trkpt>
      <trkpt lat="47.39928" lon="-0.42943">
        <ele>37</ele>
        <time>2025-05-11T17:15:08Z</time>
      </trkpt>
      <trkpt lat="47.39941" lon="-0.42956">
        <ele>33</ele>
        <time>2025-05-11T17:15:12Z</time>
      </trkpt>
      <trkpt lat="47.39943" lon="-0.42966">
        <ele>32</ele>
        <time>2025-05-11T17:15:13Z</time>
      </trkpt>
      <trkpt lat="47.39939" lon="-0.4305">
        <ele>30</ele>
        <time>2025-05-11T17:15:27Z</time>
      </trkpt>
      <trkpt lat="47.39936" lon="-0.43064">
        <ele>30</ele>
        <time>2025-05-11T17:15:29Z</time>
      </trkpt>
      <trkpt lat="47.39937" lon="-0.43074">
        <ele>30</ele>
        <time>2025-05-11T17:15:31Z</time>
      </trkpt>
      <trkpt lat="47.39924" lon="-0.43099">
        <ele>32</ele>
        <time>2025-05-11T17:15:36Z</time>
      </trkpt>
      <trkpt lat="47.39924" lon="-0.43122">
        <ele>32</ele>
        <time>2025-05-11T17:15:39Z</time>
      </trkpt>
      <trkpt lat="47.39926" lon="-0.43126">
        <ele>32</ele>
        <time>2025-05-11T17:15:40Z</time>
      </trkpt>
      <trkpt lat="47.39933" lon="-0.43128">
        <ele>31</ele>
        <time>2025-05-11T17:15:42Z</time>
      </trkpt>
      <trkpt lat="47.40022" lon="-0.43123">
        <ele>23</ele>
        <time>2025-05-11T17:16:02Z</time>
      </trkpt>
      <trkpt lat="47.40025" lon="-0.43126">
        <ele>23</ele>
        <time>2025-05-11T17:16:03Z</time>
      </trkpt>
      <trkpt lat="47.40027" lon="-0.43135">
        <ele>23</ele>
        <time>2025-05-11T17:16:05Z</time>
      </trkpt>
      <trkpt lat="47.40028" lon="-0.43215">
        <ele>23</ele>
        <time>2025-05-11T17:16:17Z</time>
      </trkpt>
      <trkpt lat="47.40033" lon="-0.43223">
        <ele>22</ele>
        <time>2025-05-11T17:16:19Z</time>
      </trkpt>
      <trkpt lat="47.40038" lon="-0.43224">
        <ele>22</ele>
        <time>2025-05-11T17:16:20Z</time>
      </trkpt>
      <trkpt lat="47.40123" lon="-0.43219">
        <ele>18</ele>
        <time>2025-05-11T17:16:40Z</time>
      </trkpt>
      <trkpt lat="47.40134" lon="-0.43214">
        <ele>18</ele>
        <time>2025-05-11T17:16:43Z</time>
      </trkpt>
      <trkpt lat="47.40141" lon="-0.43203">
        <ele>17</ele>
        <time>2025-05-11T17:16:45Z</time>
      </trkpt>
      <trkpt lat="47.40161" lon="-0.43066">
        <ele>16</ele>
        <time>2025-05-11T17:17:07Z</time>
      </trkpt>
      <trkpt lat="47.40163" lon="-0.43029">
        <ele>17</ele>
        <time>2025-05-11T17:17:13Z</time>
      </trkpt>
      <trkpt lat="47.4016" lon="-0.42976">
        <ele>17</ele>
        <time>2025-05-11T17:17:22Z</time>
      </trkpt>
      <trkpt lat="47.4014" lon="-0.42804">
        <ele>18</ele>
        <time>2025-05-11T17:17:49Z</time>
      </trkpt>
      <trkpt lat="47.40144" lon="-0.42735">
        <ele>18</ele>
        <time>2025-05-11T17:18:00Z</time>
      </trkpt>
      <trkpt lat="47.4015" lon="-0.42686">
        <ele>20</ele>
        <time>2025-05-11T17:18:08Z</time>
      </trkpt>
      <trkpt lat="47.40153" lon="-0.42675">
        <ele>20</ele>
        <time>2025-05-11T17:18:10Z</time>
      </trkpt>
      <trkpt lat="47.40159" lon="-0.42668">
        <ele>20</ele>
        <time>2025-05-11T17:18:12Z</time>
      </trkpt>
      <trkpt lat="47.40168" lon="-0.42665">
        <ele>20</ele>
        <time>2025-05-11T17:18:14Z</time>
      </trkpt>
      <trkpt lat="47.40473" lon="-0.42632">
        <ele>19</ele>
        <time>2025-05-11T17:19:25Z</time>
      </trkpt>
      <trkpt lat="47.40527" lon="-0.42628">
        <ele>19</ele>
        <time>2025-05-11T17:19:38Z</time>
      </trkpt>
      <trkpt lat="47.40714" lon="-0.42604">
        <ele>18</ele>
        <time>2025-05-11T17:20:22Z</time>
      </trkpt>
      <trkpt lat="47.4076" lon="-0.426">
        <ele>19</ele>
        <time>2025-05-11T17:20:33Z</time>
      </trkpt>
      <trkpt lat="47.40772" lon="-0.42608">
        <ele>19</ele>
        <time>2025-05-11T17:20:36Z</time>
      </trkpt>
      <trkpt lat="47.40773" lon="-0.42614">
        <ele>19</ele>
        <time>2025-05-11T17:20:37Z</time>
      </trkpt>
      <trkpt lat="47.40761" lon="-0.4271">
        <ele>18</ele>
        <time>2025-05-11T17:20:52Z</time>
      </trkpt>
      <trkpt lat="47.40765" lon="-0.42721">
        <ele>18</ele>
        <time>2025-05-11T17:20:54Z</time>
      </trkpt>
      <trkpt lat="47.40775" lon="-0.42724">
        <ele>18</ele>
        <time>2025-05-11T17:20:56Z</time>
      </trkpt>
      <trkpt lat="47.40946" lon="-0.42696">
        <ele>21</ele>
        <time>2025-05-11T17:21:37Z</time>
      </trkpt>
      <trkpt lat="47.40957" lon="-0.42692">
        <ele>21</ele>
        <time>2025-05-11T17:21:39Z</time>
      </trkpt>
      <trkpt lat="47.40985" lon="-0.42675">
        <ele>20</ele>
        <time>2025-05-11T17:21:46Z</time>
      </trkpt>
      <trkpt lat="47.41119" lon="-0.42581">
        <ele>20</ele>
        <time>2025-05-11T17:22:21Z</time>
      </trkpt>
      <trkpt lat="47.41134" lon="-0.42562">
        <ele>19</ele>
        <time>2025-05-11T17:22:26Z</time>
      </trkpt>
      <trkpt lat="47.41156" lon="-0.42522">
        <ele>18</ele>
        <time>2025-05-11T17:22:34Z</time>
      </trkpt>
      <trkpt lat="47.41165" lon="-0.42475">
        <ele>18</ele>
        <time>2025-05-11T17:22:41Z</time>
      </trkpt>
      <trkpt lat="47.41167" lon="-0.42441">
        <ele>18</ele>
        <time>2025-05-11T17:22:47Z</time>
      </trkpt>
      <trkpt lat="47.41177" lon="-0.42361">
        <ele>21</ele>
        <time>2025-05-11T17:23:00Z</time>
      </trkpt>
      <trkpt lat="47.41179" lon="-0.42323">
        <ele>23</ele>
        <time>2025-05-11T17:23:06Z</time>
      </trkpt>
      <trkpt lat="47.41177" lon="-0.42303">
        <ele>23</ele>
        <time>2025-05-11T17:23:09Z</time>
      </trkpt>
      <trkpt lat="47.41182" lon="-0.42274">
        <ele>23</ele>
        <time>2025-05-11T17:23:14Z</time>
      </trkpt>
      <trkpt lat="47.41172" lon="-0.4221">
        <ele>22</ele>
        <time>2025-05-11T17:23:24Z</time>
      </trkpt>
      <trkpt lat="47.41172" lon="-0.42142">
        <ele>21</ele>
        <time>2025-05-11T17:23:35Z</time>
      </trkpt>
      <trkpt lat="47.41174" lon="-0.4212">
        <ele>20</ele>
        <time>2025-05-11T17:23:38Z</time>
      </trkpt>
      <trkpt lat="47.41172" lon="-0.42108">
        <ele>21</ele>
        <time>2025-05-11T17:23:40Z</time>
      </trkpt>
      <trkpt lat="47.41191" lon="-0.42056">
        <ele>20</ele>
        <time>2025-05-11T17:23:50Z</time>
      </trkpt>
      <trkpt lat="47.41191" lon="-0.42044">
        <ele>20</ele>
        <time>2025-05-11T17:23:51Z</time>
      </trkpt>
      <trkpt lat="47.41201" lon="-0.42001">
        <ele>20</ele>
        <time>2025-05-11T17:23:59Z</time>
      </trkpt>
      <trkpt lat="47.41198" lon="-0.4199">
        <ele>21</ele>
        <time>2025-05-11T17:24:00Z</time>
      </trkpt>
      <trkpt lat="47.41209" lon="-0.41963">
        <ele>20</ele>
        <time>2025-05-11T17:24:05Z</time>
      </trkpt>
      <trkpt lat="47.4121" lon="-0.41937">
        <ele>20</ele>
        <time>2025-05-11T17:24:10Z</time>
      </trkpt>
      <trkpt lat="47.41214" lon="-0.41921">
        <ele>20</ele>
        <time>2025-05-11T17:24:12Z</time>
      </trkpt>
      <trkpt lat="47.41221" lon="-0.41908">
        <ele>20</ele>
        <time>2025-05-11T17:24:15Z</time>
      </trkpt>
      <trkpt lat="47.41221" lon="-0.41895">
        <ele>20</ele>
        <time>2025-05-11T17:24:17Z</time>
      </trkpt>
      <trkpt lat="47.41227" lon="-0.4187">
        <ele>20</ele>
        <time>2025-05-11T17:24:21Z</time>
      </trkpt>
      <trkpt lat="47.41222" lon="-0.41858">
        <ele>21</ele>
        <time>2025-05-11T17:24:23Z</time>
      </trkpt>
      <trkpt lat="47.41216" lon="-0.41805">
        <ele>21</ele>
        <time>2025-05-11T17:24:32Z</time>
      </trkpt>
      <trkpt lat="47.41222" lon="-0.41759">
        <ele>20</ele>
        <time>2025-05-11T17:24:39Z</time>
      </trkpt>
      <trkpt lat="47.41219" lon="-0.41742">
        <ele>19</ele>
        <time>2025-05-11T17:24:42Z</time>
      </trkpt>
      <trkpt lat="47.41222" lon="-0.41722">
        <ele>19</ele>
        <time>2025-05-11T17:24:45Z</time>
      </trkpt>
      <trkpt lat="47.41231" lon="-0.41694">
        <ele>19</ele>
        <time>2025-05-11T17:24:50Z</time>
      </trkpt>
      <trkpt lat="47.41229" lon="-0.41679">
        <ele>19</ele>
        <time>2025-05-11T17:24:53Z</time>
      </trkpt>
      <trkpt lat="47.41238" lon="-0.41651">
        <ele>20</ele>
        <time>2025-05-11T17:24:57Z</time>
      </trkpt>
      <trkpt lat="47.41238" lon="-0.41635">
        <ele>20</ele>
        <time>2025-05-11T17:25:00Z</time>
      </trkpt>
      <trkpt lat="47.41243" lon="-0.41624">
        <ele>21</ele>
        <time>2025-05-11T17:25:02Z</time>
      </trkpt>
      <trkpt lat="47.41242" lon="-0.41616">
        <ele>21</ele>
        <time>2025-05-11T17:25:03Z</time>
      </trkpt>
      <trkpt lat="47.41248" lon="-0.41605">
        <ele>21</ele>
        <time>2025-05-11T17:25:06Z</time>
      </trkpt>
      <trkpt lat="47.41249" lon="-0.41596">
        <ele>22</ele>
        <time>2025-05-11T17:25:07Z</time>
      </trkpt>
      <trkpt lat="47.41246" lon="-0.41583">
        <ele>22</ele>
        <time>2025-05-11T17:25:09Z</time>
      </trkpt>
      <trkpt lat="47.41252" lon="-0.41576">
        <ele>22</ele>
        <time>2025-05-11T17:25:11Z</time>
      </trkpt>
      <trkpt lat="47.41268" lon="-0.41534">
        <ele>23</ele>
        <time>2025-05-11T17:25:19Z</time>
      </trkpt>
      <trkpt lat="47.41269" lon="-0.41528">
        <ele>23</ele>
        <time>2025-05-11T17:25:20Z</time>
      </trkpt>
      <trkpt lat="47.41267" lon="-0.41524">
        <ele>23</ele>
        <time>2025-05-11T17:25:20Z</time>
      </trkpt>
      <trkpt lat="47.4127" lon="-0.41506">
        <ele>24</ele>
        <time>2025-05-11T17:25:23Z</time>
      </trkpt>
      <trkpt lat="47.41273" lon="-0.41502">
        <ele>23</ele>
        <time>2025-05-11T17:25:24Z</time>
      </trkpt>
      <trkpt lat="47.41275" lon="-0.41487">
        <ele>23</ele>
        <time>2025-05-11T17:25:27Z</time>
      </trkpt>
      <trkpt lat="47.41282" lon="-0.41471">
        <ele>22</ele>
        <time>2025-05-11T17:25:30Z</time>
      </trkpt>
      <trkpt lat="47.41281" lon="-0.41435">
        <ele>22</ele>
        <time>2025-05-11T17:25:35Z</time>
      </trkpt>
      <trkpt lat="47.41283" lon="-0.41415">
        <ele>22</ele>
        <time>2025-05-11T17:25:39Z</time>
      </trkpt>
      <trkpt lat="47.41281" lon="-0.41409">
        <ele>22</ele>
        <time>2025-05-11T17:25:40Z</time>
      </trkpt>
      <trkpt lat="47.41273" lon="-0.41402">
        <ele>23</ele>
        <time>2025-05-11T17:25:42Z</time>
      </trkpt>
      <trkpt lat="47.41273" lon="-0.41397">
        <ele>23</ele>
        <time>2025-05-11T17:25:43Z</time>
      </trkpt>
      <trkpt lat="47.4128" lon="-0.4136">
        <ele>22</ele>
        <time>2025-05-11T17:25:49Z</time>
      </trkpt>
      <trkpt lat="47.41295" lon="-0.41242">
        <ele>21</ele>
        <time>2025-05-11T17:26:08Z</time>
      </trkpt>
      <trkpt lat="47.4131" lon="-0.41171">
        <ele>25</ele>
        <time>2025-05-11T17:26:19Z</time>
      </trkpt>
      <trkpt lat="47.41364" lon="-0.40839">
        <ele>21</ele>
        <time>2025-05-11T17:27:13Z</time>
      </trkpt>
      <trkpt lat="47.41385" lon="-0.4059">
        <ele>21</ele>
        <time>2025-05-11T17:27:53Z</time>
      </trkpt>
      <trkpt lat="47.41383" lon="-0.40561">
        <ele>21</ele>
        <time>2025-05-11T17:27:58Z</time>
      </trkpt>
      <trkpt lat="47.41373" lon="-0.40528">
        <ele>20</ele>
        <time>2025-05-11T17:28:03Z</time>
      </trkpt>
      <trkpt lat="47.41295" lon="-0.40368">
        <ele>20</ele>
        <time>2025-05-11T17:28:34Z</time>
      </trkpt>
      <trkpt lat="47.41267" lon="-0.40302">
        <ele>19</ele>
        <time>2025-05-11T17:28:47Z</time>
      </trkpt>
      <trkpt lat="47.41231" lon="-0.4024">
        <ele>20</ele>
        <time>2025-05-11T17:29:00Z</time>
      </trkpt>
      <trkpt lat="47.41162" lon="-0.4005">
        <ele>20</ele>
        <time>2025-05-11T17:29:34Z</time>
      </trkpt>
      <trkpt lat="47.41131" lon="-0.39956">
        <ele>19</ele>
        <time>2025-05-11T17:29:50Z</time>
      </trkpt>
      <trkpt lat="47.4109" lon="-0.39799">
        <ele>19</ele>
        <time>2025-05-11T17:30:17Z</time>
      </trkpt>
      <trkpt lat="47.41033" lon="-0.3948">
        <ele>22</ele>
        <time>2025-05-11T17:31:09Z</time>
      </trkpt>
      <trkpt lat="47.41014" lon="-0.39391">
        <ele>23</ele>
        <time>2025-05-11T17:31:24Z</time>
      </trkpt>
      <trkpt lat="47.40983" lon="-0.39281">
        <ele>22</ele>
        <time>2025-05-11T17:31:43Z</time>
      </trkpt>
      <trkpt lat="47.40955" lon="-0.39203">
        <ele>22</ele>
        <time>2025-05-11T17:31:57Z</time>
      </trkpt>
      <trkpt lat="47.40911" lon="-0.39115">
        <ele>22</ele>
        <time>2025-05-11T17:32:14Z</time>
      </trkpt>
      <trkpt lat="47.40869" lon="-0.39022">
        <ele>23</ele>
        <time>2025-05-11T17:32:32Z</time>
      </trkpt>
      <trkpt lat="47.40768" lon="-0.38812">
        <ele>25</ele>
        <time>2025-05-11T17:33:12Z</time>
      </trkpt>
      <trkpt lat="47.40754" lon="-0.38778">
        <ele>24</ele>
        <time>2025-05-11T17:33:19Z</time>
      </trkpt>
      <trkpt lat="47.40697" lon="-0.38608">
        <ele>21</ele>
        <time>2025-05-11T17:33:49Z</time>
      </trkpt>
      <trkpt lat="47.40659" lon="-0.38456">
        <ele>21</ele>
        <time>2025-05-11T17:34:14Z</time>
      </trkpt>
      <trkpt lat="47.40646" lon="-0.3839">
        <ele>22</ele>
        <time>2025-05-11T17:34:25Z</time>
      </trkpt>
      <trkpt lat="47.40615" lon="-0.38204">
        <ele>21</ele>
        <time>2025-05-11T17:34:55Z</time>
      </trkpt>
      <trkpt lat="47.40602" lon="-0.3801">
        <ele>23</ele>
        <time>2025-05-11T17:35:26Z</time>
      </trkpt>
      <trkpt lat="47.40604" lon="-0.37995">
        <ele>23</ele>
        <time>2025-05-11T17:35:29Z</time>
      </trkpt>
      <trkpt lat="47.40618" lon="-0.37955">
        <ele>22</ele>
        <time>2025-05-11T17:35:36Z</time>
      </trkpt>
      <trkpt lat="47.40616" lon="-0.3776">
        <ele>23</ele>
        <time>2025-05-11T17:36:06Z</time>
      </trkpt>
      <trkpt lat="47.4062" lon="-0.37669">
        <ele>26</ele>
        <time>2025-05-11T17:36:21Z</time>
      </trkpt>
      <trkpt lat="47.40636" lon="-0.37509">
        <ele>23</ele>
        <time>2025-05-11T17:36:46Z</time>
      </trkpt>
      <trkpt lat="47.40631" lon="-0.37453">
        <ele>23</ele>
        <time>2025-05-11T17:36:55Z</time>
      </trkpt>
      <trkpt lat="47.40643" lon="-0.37368">
        <ele>24</ele>
        <time>2025-05-11T17:37:09Z</time>
      </trkpt>
      <trkpt lat="47.40641" lon="-0.37355">
        <ele>24</ele>
        <time>2025-05-11T17:37:11Z</time>
      </trkpt>
      <trkpt lat="47.40634" lon="-0.3734">
        <ele>25</ele>
        <time>2025-05-11T17:37:14Z</time>
      </trkpt>
      <trkpt lat="47.40628" lon="-0.37318">
        <ele>25</ele>
        <time>2025-05-11T17:37:18Z</time>
      </trkpt>
      <trkpt lat="47.40635" lon="-0.37261">
        <ele>25</ele>
        <time>2025-05-11T17:37:27Z</time>
      </trkpt>
      <trkpt lat="47.40632" lon="-0.37261">
        <ele>25</ele>
        <time>2025-05-11T17:37:28Z</time>
      </trkpt>
      <trkpt lat="47.40621" lon="-0.37248">
        <ele>25</ele>
        <time>2025-05-11T17:37:31Z</time>
      </trkpt>
      <trkpt lat="47.4061" lon="-0.3724">
        <ele>25</ele>
        <time>2025-05-11T17:37:34Z</time>
      </trkpt>
      <trkpt lat="47.4059" lon="-0.3723">
        <ele>25</ele>
        <time>2025-05-11T17:37:39Z</time>
      </trkpt>
      <trkpt lat="47.40587" lon="-0.3722">
        <ele>25</ele>
        <time>2025-05-11T17:37:41Z</time>
      </trkpt>
      <trkpt lat="47.40588" lon="-0.37167">
        <ele>23</ele>
        <time>2025-05-11T17:37:49Z</time>
      </trkpt>
      <trkpt lat="47.40585" lon="-0.37104">
        <ele>23</ele>
        <time>2025-05-11T17:37:59Z</time>
      </trkpt>
      <trkpt lat="47.4059" lon="-0.37083">
        <ele>23</ele>
        <time>2025-05-11T17:38:02Z</time>
      </trkpt>
      <trkpt lat="47.40584" lon="-0.3708">
        <ele>23</ele>
        <time>2025-05-11T17:38:04Z</time>
      </trkpt>
      <trkpt lat="47.40582" lon="-0.37073">
        <ele>23</ele>
        <time>2025-05-11T17:38:05Z</time>
      </trkpt>
      <trkpt lat="47.40585" lon="-0.37063">
        <ele>23</ele>
        <time>2025-05-11T17:38:07Z</time>
      </trkpt>
      <trkpt lat="47.40587" lon="-0.37013">
        <ele>23</ele>
        <time>2025-05-11T17:38:15Z</time>
      </trkpt>
      <trkpt lat="47.406" lon="-0.3699">
        <ele>23</ele>
        <time>2025-05-11T17:38:19Z</time>
      </trkpt>
      <trkpt lat="47.40602" lon="-0.36979">
        <ele>24</ele>
        <time>2025-05-11T17:38:21Z</time>
      </trkpt>
      <trkpt lat="47.40598" lon="-0.36972">
        <ele>24</ele>
        <time>2025-05-11T17:38:23Z</time>
      </trkpt>
      <trkpt lat="47.40597" lon="-0.36964">
        <ele>24</ele>
        <time>2025-05-11T17:38:24Z</time>
      </trkpt>
      <trkpt lat="47.40606" lon="-0.36916">
        <ele>25</ele>
        <time>2025-05-11T17:38:32Z</time>
      </trkpt>
      <trkpt lat="47.40604" lon="-0.36897">
        <ele>25</ele>
        <time>2025-05-11T17:38:35Z</time>
      </trkpt>
      <trkpt lat="47.40603" lon="-0.36894">
        <ele>25</ele>
        <time>2025-05-11T17:38:35Z</time>
      </trkpt>
      <trkpt lat="47.40582" lon="-0.36895">
        <ele>25</ele>
        <time>2025-05-11T17:38:40Z</time>
      </trkpt>
      <trkpt lat="47.40538" lon="-0.36892">
        <ele>24</ele>
        <time>2025-05-11T17:38:51Z</time>
      </trkpt>
      <trkpt lat="47.4053" lon="-0.3689">
        <ele>23</ele>
        <time>2025-05-11T17:38:53Z</time>
      </trkpt>
      <trkpt lat="47.40527" lon="-0.36884">
        <ele>23</ele>
        <time>2025-05-11T17:38:54Z</time>
      </trkpt>
      <trkpt lat="47.40566" lon="-0.36708">
        <ele>21</ele>
        <time>2025-05-11T17:39:23Z</time>
      </trkpt>
      <trkpt lat="47.40586" lon="-0.36634">
        <ele>20</ele>
        <time>2025-05-11T17:39:36Z</time>
      </trkpt>
      <trkpt lat="47.40597" lon="-0.36574">
        <ele>19</ele>
        <time>2025-05-11T17:39:45Z</time>
      </trkpt>
      <trkpt lat="47.40638" lon="-0.36204">
        <ele>22</ele>
        <time>2025-05-11T17:40:45Z</time>
      </trkpt>
      <trkpt lat="47.4064" lon="-0.36149">
        <ele>22</ele>
        <time>2025-05-11T17:40:53Z</time>
      </trkpt>
      <trkpt lat="47.40636" lon="-0.36096">
        <ele>23</ele>
        <time>2025-05-11T17:41:02Z</time>
      </trkpt>
      <trkpt lat="47.40632" lon="-0.36088">
        <ele>23</ele>
        <time>2025-05-11T17:41:03Z</time>
      </trkpt>
      <trkpt lat="47.40562" lon="-0.36066">
        <ele>25</ele>
        <time>2025-05-11T17:41:20Z</time>
      </trkpt>
      <trkpt lat="47.4055" lon="-0.36059">
        <ele>26</ele>
        <time>2025-05-11T17:41:23Z</time>
      </trkpt>
      <trkpt lat="47.40511" lon="-0.36027">
        <ele>29</ele>
        <time>2025-05-11T17:41:33Z</time>
      </trkpt>
      <trkpt lat="47.40507" lon="-0.36019">
        <ele>30</ele>
        <time>2025-05-11T17:41:35Z</time>
      </trkpt>
      <trkpt lat="47.40505" lon="-0.35986">
        <ele>31</ele>
        <time>2025-05-11T17:41:40Z</time>
      </trkpt>
      <trkpt lat="47.40513" lon="-0.35933">
        <ele>33</ele>
        <time>2025-05-11T17:41:49Z</time>
      </trkpt>
      <trkpt lat="47.40494" lon="-0.35897">
        <ele>36</ele>
        <time>2025-05-11T17:41:56Z</time>
      </trkpt>
      <trkpt lat="47.40491" lon="-0.35887">
        <ele>37</ele>
        <time>2025-05-11T17:41:58Z</time>
      </trkpt>
      <trkpt lat="47.40519" lon="-0.35815">
        <ele>39</ele>
        <time>2025-05-11T17:42:11Z</time>
      </trkpt>
      <trkpt lat="47.40526" lon="-0.35789">
        <ele>40</ele>
        <time>2025-05-11T17:42:15Z</time>
      </trkpt>
      <trkpt lat="47.40533" lon="-0.35749">
        <ele>41</ele>
        <time>2025-05-11T17:42:22Z</time>
      </trkpt>
      <trkpt lat="47.4053" lon="-0.35724">
        <ele>43</ele>
        <time>2025-05-11T17:42:26Z</time>
      </trkpt>
      <trkpt lat="47.40535" lon="-0.35689">
        <ele>44</ele>
        <time>2025-05-11T17:42:32Z</time>
      </trkpt>
      <trkpt lat="47.40536" lon="-0.35654">
        <ele>46</ele>
        <time>2025-05-11T17:42:37Z</time>
      </trkpt>
      <trkpt lat="47.40534" lon="-0.35625">
        <ele>46</ele>
        <time>2025-05-11T17:42:42Z</time>
      </trkpt>
      <trkpt lat="47.40518" lon="-0.35532">
        <ele>49</ele>
        <time>2025-05-11T17:42:57Z</time>
      </trkpt>
      <trkpt lat="47.40504" lon="-0.35498">
        <ele>52</ele>
        <time>2025-05-11T17:43:03Z</time>
      </trkpt>
      <trkpt lat="47.40463" lon="-0.35421">
        <ele>51</ele>
        <time>2025-05-11T17:43:19Z</time>
      </trkpt>
      <trkpt lat="47.40446" lon="-0.354">
        <ele>52</ele>
        <time>2025-05-11T17:43:24Z</time>
      </trkpt>
      <trkpt lat="47.40436" lon="-0.35366">
        <ele>50</ele>
        <time>2025-05-11T17:43:30Z</time>
      </trkpt>
      <trkpt lat="47.40431" lon="-0.35323">
        <ele>46</ele>
        <time>2025-05-11T17:43:37Z</time>
      </trkpt>
      <trkpt lat="47.40423" lon="-0.35303">
        <ele>45</ele>
        <time>2025-05-11T17:43:40Z</time>
      </trkpt>
      <trkpt lat="47.40389" lon="-0.35242">
        <ele>42</ele>
        <time>2025-05-11T17:43:53Z</time>
      </trkpt>
      <trkpt lat="47.40377" lon="-0.35216">
        <ele>42</ele>
        <time>2025-05-11T17:43:58Z</time>
      </trkpt>
      <trkpt lat="47.40373" lon="-0.35178">
        <ele>40</ele>
        <time>2025-05-11T17:44:04Z</time>
      </trkpt>
      <trkpt lat="47.40354" lon="-0.35121">
        <ele>39</ele>
        <time>2025-05-11T17:44:14Z</time>
      </trkpt>
      <trkpt lat="47.40342" lon="-0.35101">
        <ele>39</ele>
        <time>2025-05-11T17:44:18Z</time>
      </trkpt>
      <trkpt lat="47.40315" lon="-0.35067">
        <ele>39</ele>
        <time>2025-05-11T17:44:26Z</time>
      </trkpt>
      <trkpt lat="47.40292" lon="-0.35014">
        <ele>35</ele>
        <time>2025-05-11T17:44:36Z</time>
      </trkpt>
      <trkpt lat="47.40289" lon="-0.35013">
        <ele>35</ele>
        <time>2025-05-11T17:44:37Z</time>
      </trkpt>
      <trkpt lat="47.40277" lon="-0.35017">
        <ele>37</ele>
        <time>2025-05-11T17:44:40Z</time>
      </trkpt>
      <trkpt lat="47.40255" lon="-0.3504">
        <ele>42</ele>
        <time>2025-05-11T17:44:46Z</time>
      </trkpt>
      <trkpt lat="47.40235" lon="-0.35057">
        <ele>46</ele>
        <time>2025-05-11T17:44:52Z</time>
      </trkpt>
      <trkpt lat="47.40231" lon="-0.35058">
        <ele>47</ele>
        <time>2025-05-11T17:44:53Z</time>
      </trkpt>
      <trkpt lat="47.40186" lon="-0.34964">
        <ele>43</ele>
        <time>2025-05-11T17:45:11Z</time>
      </trkpt>
      <trkpt lat="47.40182" lon="-0.34963">
        <ele>43</ele>
        <time>2025-05-11T17:45:12Z</time>
      </trkpt>
      <trkpt lat="47.40173" lon="-0.34967">
        <ele>45</ele>
        <time>2025-05-11T17:45:14Z</time>
      </trkpt>
      <trkpt lat="47.4013" lon="-0.35004">
        <ele>53</ele>
        <time>2025-05-11T17:45:25Z</time>
      </trkpt>
      <trkpt lat="47.40121" lon="-0.35007">
        <ele>53</ele>
        <time>2025-05-11T17:45:28Z</time>
      </trkpt>
      <trkpt lat="47.40111" lon="-0.35005">
        <ele>54</ele>
        <time>2025-05-11T17:45:30Z</time>
      </trkpt>
      <trkpt lat="47.40101" lon="-0.34992">
        <ele>53</ele>
        <time>2025-05-11T17:45:33Z</time>
      </trkpt>
      <trkpt lat="47.40083" lon="-0.34957">
        <ele>49</ele>
        <time>2025-05-11T17:45:40Z</time>
      </trkpt>
      <trkpt lat="47.40054" lon="-0.34913">
        <ele>48</ele>
        <time>2025-05-11T17:45:50Z</time>
      </trkpt>
      <trkpt lat="47.40033" lon="-0.34915">
        <ele>52</ele>
        <time>2025-05-11T17:45:55Z</time>
      </trkpt>
      <trkpt lat="47.40024" lon="-0.34909">
        <ele>52</ele>
        <time>2025-05-11T17:45:57Z</time>
      </trkpt>
      <trkpt lat="47.40017" lon="-0.34908">
        <ele>53</ele>
        <time>2025-05-11T17:45:59Z</time>
      </trkpt>
      <trkpt lat="47.39993" lon="-0.34921">
        <ele>57</ele>
        <time>2025-05-11T17:46:05Z</time>
      </trkpt>
      <trkpt lat="47.39988" lon="-0.34917">
        <ele>56</ele>
        <time>2025-05-11T17:46:06Z</time>
      </trkpt>
      <trkpt lat="47.3997" lon="-0.34914">
        <ele>55</ele>
        <time>2025-05-11T17:46:10Z</time>
      </trkpt>
      <trkpt lat="47.3996" lon="-0.34909">
        <ele>53</ele>
        <time>2025-05-11T17:46:13Z</time>
      </trkpt>
      <trkpt lat="47.39959" lon="-0.34904">
        <ele>53</ele>
        <time>2025-05-11T17:46:13Z</time>
      </trkpt>
      <trkpt lat="47.39955" lon="-0.349">
        <ele>52</ele>
        <time>2025-05-11T17:46:15Z</time>
      </trkpt>
      <trkpt lat="47.39948" lon="-0.34898">
        <ele>52</ele>
        <time>2025-05-11T17:46:16Z</time>
      </trkpt>
      <trkpt lat="47.39943" lon="-0.34892">
        <ele>51</ele>
        <time>2025-05-11T17:46:18Z</time>
      </trkpt>
      <trkpt lat="47.39942" lon="-0.34881">
        <ele>50</ele>
        <time>2025-05-11T17:46:19Z</time>
      </trkpt>
      <trkpt lat="47.3993" lon="-0.34878">
        <ele>50</ele>
        <time>2025-05-11T17:46:22Z</time>
      </trkpt>
      <trkpt lat="47.3988" lon="-0.34369">
        <ele>48</ele>
        <time>2025-05-11T17:47:44Z</time>
      </trkpt>
      <trkpt lat="47.39874" lon="-0.34332">
        <ele>46</ele>
        <time>2025-05-11T17:47:50Z</time>
      </trkpt>
      <trkpt lat="47.3984" lon="-0.34179">
        <ele>52</ele>
        <time>2025-05-11T17:48:15Z</time>
      </trkpt>
      <trkpt lat="47.39834" lon="-0.34123">
        <ele>54</ele>
        <time>2025-05-11T17:48:24Z</time>
      </trkpt>
      <trkpt lat="47.39816" lon="-0.34025">
        <ele>53</ele>
        <time>2025-05-11T17:48:40Z</time>
      </trkpt>
      <trkpt lat="47.39812" lon="-0.33991">
        <ele>52</ele>
        <time>2025-05-11T17:48:46Z</time>
      </trkpt>
      <trkpt lat="47.39803" lon="-0.33974">
        <ele>52</ele>
        <time>2025-05-11T17:48:49Z</time>
      </trkpt>
      <trkpt lat="47.39794" lon="-0.33971">
        <ele>52</ele>
        <time>2025-05-11T17:48:51Z</time>
      </trkpt>
      <trkpt lat="47.39714" lon="-0.34006">
        <ele>58</ele>
        <time>2025-05-11T17:49:11Z</time>
      </trkpt>
      <trkpt lat="47.39634" lon="-0.34027">
        <ele>61</ele>
        <time>2025-05-11T17:49:30Z</time>
      </trkpt>
      <trkpt lat="47.39584" lon="-0.34028">
        <ele>61</ele>
        <time>2025-05-11T17:49:41Z</time>
      </trkpt>
      <trkpt lat="47.3955" lon="-0.34032">
        <ele>61</ele>
        <time>2025-05-11T17:49:49Z</time>
      </trkpt>
      <trkpt lat="47.39448" lon="-0.34015">
        <ele>63</ele>
        <time>2025-05-11T17:50:13Z</time>
      </trkpt>
      <trkpt lat="47.39406" lon="-0.34011">
        <ele>64</ele>
        <time>2025-05-11T17:50:23Z</time>
      </trkpt>
      <trkpt lat="47.39389" lon="-0.34012">
        <ele>65</ele>
        <time>2025-05-11T17:50:27Z</time>
      </trkpt>
      <trkpt lat="47.39373" lon="-0.34016">
        <ele>66</ele>
        <time>2025-05-11T17:50:31Z</time>
      </trkpt>
      <trkpt lat="47.39247" lon="-0.34068">
        <ele>70</ele>
        <time>2025-05-11T17:51:01Z</time>
      </trkpt>
      <trkpt lat="47.39203" lon="-0.34078">
        <ele>71</ele>
        <time>2025-05-11T17:51:12Z</time>
      </trkpt>
      <trkpt lat="47.39194" lon="-0.34076">
        <ele>71</ele>
        <time>2025-05-11T17:51:14Z</time>
      </trkpt>
      <trkpt lat="47.3919" lon="-0.3408">
        <ele>71</ele>
        <time>2025-05-11T17:51:15Z</time>
      </trkpt>
      <trkpt lat="47.39191" lon="-0.34093">
        <ele>71</ele>
        <time>2025-05-11T17:51:17Z</time>
      </trkpt>
      <trkpt lat="47.39187" lon="-0.34149">
        <ele>72</ele>
        <time>2025-05-11T17:51:26Z</time>
      </trkpt>
      <trkpt lat="47.39172" lon="-0.34155">
        <ele>72</ele>
        <time>2025-05-11T17:51:30Z</time>
      </trkpt>
      <trkpt lat="47.39168" lon="-0.34165">
        <ele>72</ele>
        <time>2025-05-11T17:51:31Z</time>
      </trkpt>
      <trkpt lat="47.39165" lon="-0.34257">
        <ele>73</ele>
        <time>2025-05-11T17:51:46Z</time>
      </trkpt>
      <trkpt lat="47.39166" lon="-0.34337">
        <ele>75</ele>
        <time>2025-05-11T17:51:59Z</time>
      </trkpt>
      <trkpt lat="47.39164" lon="-0.34347">
        <ele>75</ele>
        <time>2025-05-11T17:52:00Z</time>
      </trkpt>
      <trkpt lat="47.39162" lon="-0.34349">
        <ele>75</ele>
        <time>2025-05-11T17:52:01Z</time>
      </trkpt>
      <trkpt lat="47.39135" lon="-0.34352">
        <ele>74</ele>
        <time>2025-05-11T17:52:07Z</time>
      </trkpt>
      <trkpt lat="47.39117" lon="-0.3436">
        <ele>73</ele>
        <time>2025-05-11T17:52:12Z</time>
      </trkpt>
      <trkpt lat="47.38971" lon="-0.34372">
        <ele>71</ele>
        <time>2025-05-11T17:52:46Z</time>
      </trkpt>
      <trkpt lat="47.38963" lon="-0.34375">
        <ele>71</ele>
        <time>2025-05-11T17:52:48Z</time>
      </trkpt>
      <trkpt lat="47.38953" lon="-0.34384">
        <ele>71</ele>
        <time>2025-05-11T17:52:50Z</time>
      </trkpt>
      <trkpt lat="47.38917" lon="-0.34386">
        <ele>70</ele>
        <time>2025-05-11T17:52:59Z</time>
      </trkpt>
      <trkpt lat="47.3891" lon="-0.34391">
        <ele>70</ele>
        <time>2025-05-11T17:53:01Z</time>
      </trkpt>
      <trkpt lat="47.38908" lon="-0.34407">
        <ele>70</ele>
        <time>2025-05-11T17:53:03Z</time>
      </trkpt>
      <trkpt lat="47.38919" lon="-0.34477">
        <ele>71</ele>
        <time>2025-05-11T17:53:15Z</time>
      </trkpt>
      <trkpt lat="47.38975" lon="-0.34976">
        <ele>78</ele>
        <time>2025-05-11T17:54:35Z</time>
      </trkpt>
      <trkpt lat="47.38974" lon="-0.34989">
        <ele>78</ele>
        <time>2025-05-11T17:54:37Z</time>
      </trkpt>
      <trkpt lat="47.3897" lon="-0.34996">
        <ele>78</ele>
        <time>2025-05-11T17:54:38Z</time>
      </trkpt>
      <trkpt lat="47.38966" lon="-0.34997">
        <ele>78</ele>
        <time>2025-05-11T17:54:39Z</time>
      </trkpt>
      <trkpt lat="47.38779" lon="-0.35012">
        <ele>74</ele>
        <time>2025-05-11T17:55:23Z</time>
      </trkpt>
      <trkpt lat="47.38643" lon="-0.35027">
        <ele>69</ele>
        <time>2025-05-11T17:55:55Z</time>
      </trkpt>
      <trkpt lat="47.3862" lon="-0.35032">
        <ele>69</ele>
        <time>2025-05-11T17:56:00Z</time>
      </trkpt>
      <trkpt lat="47.38596" lon="-0.35023">
        <ele>68</ele>
        <time>2025-05-11T17:56:06Z</time>
      </trkpt>
      <trkpt lat="47.3854" lon="-0.34993">
        <ele>67</ele>
        <time>2025-05-11T17:56:20Z</time>
      </trkpt>
      <trkpt lat="47.38536" lon="-0.34993">
        <ele>66</ele>
        <time>2025-05-11T17:56:21Z</time>
      </trkpt>
      <trkpt lat="47.38528" lon="-0.35">
        <ele>66</ele>
        <time>2025-05-11T17:56:23Z</time>
      </trkpt>
      <trkpt lat="47.38526" lon="-0.35018">
        <ele>66</ele>
        <time>2025-05-11T17:56:26Z</time>
      </trkpt>
      <trkpt lat="47.38556" lon="-0.35234">
        <ele>68</ele>
        <time>2025-05-11T17:57:01Z</time>
      </trkpt>
      <trkpt lat="47.38556" lon="-0.3527">
        <ele>69</ele>
        <time>2025-05-11T17:57:06Z</time>
      </trkpt>
      <trkpt lat="47.38547" lon="-0.35302">
        <ele>69</ele>
        <time>2025-05-11T17:57:12Z</time>
      </trkpt>
      <trkpt lat="47.38523" lon="-0.35355">
        <ele>70</ele>
        <time>2025-05-11T17:57:22Z</time>
      </trkpt>
      <trkpt lat="47.38516" lon="-0.35395">
        <ele>67</ele>
        <time>2025-05-11T17:57:28Z</time>
      </trkpt>
      <trkpt lat="47.38483" lon="-0.35654">
        <ele>71</ele>
        <time>2025-05-11T17:58:10Z</time>
      </trkpt>
      <trkpt lat="47.38469" lon="-0.35717">
        <ele>76</ele>
        <time>2025-05-11T17:58:20Z</time>
      </trkpt>
      <trkpt lat="47.38445" lon="-0.35776">
        <ele>78</ele>
        <time>2025-05-11T17:58:31Z</time>
      </trkpt>
      <trkpt lat="47.38415" lon="-0.35826">
        <ele>77</ele>
        <time>2025-05-11T17:58:42Z</time>
      </trkpt>
      <trkpt lat="47.38411" lon="-0.35822">
        <ele>78</ele>
        <time>2025-05-11T17:58:43Z</time>
      </trkpt>
      <trkpt lat="47.38403" lon="-0.35798">
        <ele>79</ele>
        <time>2025-05-11T17:58:47Z</time>
      </trkpt>
      <trkpt lat="47.38377" lon="-0.35756">
        <ele>82</ele>
        <time>2025-05-11T17:58:56Z</time>
      </trkpt>
      <trkpt lat="47.38369" lon="-0.35734">
        <ele>82</ele>
        <time>2025-05-11T17:59:00Z</time>
      </trkpt>
      <trkpt lat="47.38347" lon="-0.35716">
        <ele>82</ele>
        <time>2025-05-11T17:59:06Z</time>
      </trkpt>
      <trkpt lat="47.3832" lon="-0.35683">
        <ele>82</ele>
        <time>2025-05-11T17:59:14Z</time>
      </trkpt>
      <trkpt lat="47.38293" lon="-0.35645">
        <ele>81</ele>
        <time>2025-05-11T17:59:23Z</time>
      </trkpt>
      <trkpt lat="47.38273" lon="-0.35627">
        <ele>81</ele>
        <time>2025-05-11T17:59:28Z</time>
      </trkpt>
      <trkpt lat="47.38254" lon="-0.35602">
        <ele>80</ele>
        <time>2025-05-11T17:59:34Z</time>
      </trkpt>
      <trkpt lat="47.38238" lon="-0.35587">
        <ele>79</ele>
        <time>2025-05-11T17:59:39Z</time>
      </trkpt>
      <trkpt lat="47.38218" lon="-0.35555">
        <ele>77</ele>
        <time>2025-05-11T17:59:46Z</time>
      </trkpt>
      <trkpt lat="47.38188" lon="-0.35516">
        <ele>74</ele>
        <time>2025-05-11T17:59:55Z</time>
      </trkpt>
      <trkpt lat="47.38171" lon="-0.35498">
        <ele>72</ele>
        <time>2025-05-11T18:00:00Z</time>
      </trkpt>
      <trkpt lat="47.38158" lon="-0.35488">
        <ele>71</ele>
        <time>2025-05-11T18:00:03Z</time>
      </trkpt>
      <trkpt lat="47.38142" lon="-0.35468">
        <ele>69</ele>
        <time>2025-05-11T18:00:08Z</time>
      </trkpt>
      <trkpt lat="47.38117" lon="-0.35422">
        <ele>67</ele>
        <time>2025-05-11T18:00:18Z</time>
      </trkpt>
      <trkpt lat="47.38086" lon="-0.35345">
        <ele>66</ele>
        <time>2025-05-11T18:00:32Z</time>
      </trkpt>
      <trkpt lat="47.38015" lon="-0.35208">
        <ele>64</ele>
        <time>2025-05-11T18:00:59Z</time>
      </trkpt>
      <trkpt lat="47.38005" lon="-0.35195">
        <ele>64</ele>
        <time>2025-05-11T18:01:02Z</time>
      </trkpt>
      <trkpt lat="47.37994" lon="-0.35193">
        <ele>64</ele>
        <time>2025-05-11T18:01:05Z</time>
      </trkpt>
      <trkpt lat="47.37974" lon="-0.352">
        <ele>64</ele>
        <time>2025-05-11T18:01:10Z</time>
      </trkpt>
      <trkpt lat="47.37784" lon="-0.35248">
        <ele>62</ele>
        <time>2025-05-11T18:01:55Z</time>
      </trkpt>
      <trkpt lat="47.37738" lon="-0.35262">
        <ele>62</ele>
        <time>2025-05-11T18:02:06Z</time>
      </trkpt>
      <trkpt lat="47.37729" lon="-0.35261">
        <ele>62</ele>
        <time>2025-05-11T18:02:08Z</time>
      </trkpt>
      <trkpt lat="47.37725" lon="-0.35257">
        <ele>62</ele>
        <time>2025-05-11T18:02:09Z</time>
      </trkpt>
      <trkpt lat="47.37721" lon="-0.35237">
        <ele>61</ele>
        <time>2025-05-11T18:02:12Z</time>
      </trkpt>
      <trkpt lat="47.37708" lon="-0.34859">
        <ele>53</ele>
        <time>2025-05-11T18:03:12Z</time>
      </trkpt>
      <trkpt lat="47.377" lon="-0.34814">
        <ele>53</ele>
        <time>2025-05-11T18:03:19Z</time>
      </trkpt>
      <trkpt lat="47.37695" lon="-0.34802">
        <ele>53</ele>
        <time>2025-05-11T18:03:22Z</time>
      </trkpt>
      <trkpt lat="47.37676" lon="-0.34774">
        <ele>51</ele>
        <time>2025-05-11T18:03:28Z</time>
      </trkpt>
      <trkpt lat="47.37663" lon="-0.34769">
        <ele>50</ele>
        <time>2025-05-11T18:03:31Z</time>
      </trkpt>
      <trkpt lat="47.37656" lon="-0.34761">
        <ele>50</ele>
        <time>2025-05-11T18:03:33Z</time>
      </trkpt>
      <trkpt lat="47.37653" lon="-0.34749">
        <ele>50</ele>
        <time>2025-05-11T18:03:35Z</time>
      </trkpt>
      <trkpt lat="47.37656" lon="-0.34711">
        <ele>53</ele>
        <time>2025-05-11T18:03:41Z</time>
      </trkpt>
      <trkpt lat="47.37653" lon="-0.34696">
        <ele>54</ele>
        <time>2025-05-11T18:03:44Z</time>
      </trkpt>
      <trkpt lat="47.37646" lon="-0.34691">
        <ele>54</ele>
        <time>2025-05-11T18:03:45Z</time>
      </trkpt>
      <trkpt lat="47.37527" lon="-0.34688">
        <ele>46</ele>
        <time>2025-05-11T18:04:13Z</time>
      </trkpt>
      <trkpt lat="47.37363" lon="-0.34699">
        <ele>37</ele>
        <time>2025-05-11T18:04:51Z</time>
      </trkpt>
      <trkpt lat="47.37357" lon="-0.34697">
        <ele>36</ele>
        <time>2025-05-11T18:04:53Z</time>
      </trkpt>
      <trkpt lat="47.3735" lon="-0.34685">
        <ele>36</ele>
        <time>2025-05-11T18:04:55Z</time>
      </trkpt>
      <trkpt lat="47.3728" lon="-0.34252">
        <ele>39</ele>
        <time>2025-05-11T18:06:06Z</time>
      </trkpt>
      <trkpt lat="47.37281" lon="-0.34234">
        <ele>39</ele>
        <time>2025-05-11T18:06:09Z</time>
      </trkpt>
      <trkpt lat="47.37289" lon="-0.34213">
        <ele>40</ele>
        <time>2025-05-11T18:06:12Z</time>
      </trkpt>
      <trkpt lat="47.37304" lon="-0.34183">
        <ele>41</ele>
        <time>2025-05-11T18:06:18Z</time>
      </trkpt>
      <trkpt lat="47.37313" lon="-0.34155">
        <ele>42</ele>
        <time>2025-05-11T18:06:23Z</time>
      </trkpt>
      <trkpt lat="47.37346" lon="-0.34086">
        <ele>41</ele>
        <time>2025-05-11T18:06:37Z</time>
      </trkpt>
      <trkpt lat="47.37349" lon="-0.34069">
        <ele>40</ele>
        <time>2025-05-11T18:06:39Z</time>
      </trkpt>
      <trkpt lat="47.37346" lon="-0.34056">
        <ele>39</ele>
        <time>2025-05-11T18:06:42Z</time>
      </trkpt>
      <trkpt lat="47.37189" lon="-0.33909">
        <ele>33</ele>
        <time>2025-05-11T18:07:25Z</time>
      </trkpt>
      <trkpt lat="47.37174" lon="-0.33901">
        <ele>33</ele>
        <time>2025-05-11T18:07:29Z</time>
      </trkpt>
      <trkpt lat="47.37151" lon="-0.33907">
        <ele>33</ele>
        <time>2025-05-11T18:07:34Z</time>
      </trkpt>
      <trkpt lat="47.37001" lon="-0.33992">
        <ele>32</ele>
        <time>2025-05-11T18:08:12Z</time>
      </trkpt>
      <trkpt lat="47.3691" lon="-0.34023">
        <ele>33</ele>
        <time>2025-05-11T18:08:34Z</time>
      </trkpt>
      <trkpt lat="47.369" lon="-0.34023">
        <ele>33</ele>
        <time>2025-05-11T18:08:36Z</time>
      </trkpt>
      <trkpt lat="47.36773" lon="-0.33529">
        <ele>30</ele>
        <time>2025-05-11T18:09:59Z</time>
      </trkpt>
      <trkpt lat="47.36756" lon="-0.33476">
        <ele>30</ele>
        <time>2025-05-11T18:10:09Z</time>
      </trkpt>
      <trkpt lat="47.36751" lon="-0.33476">
        <ele>30</ele>
        <time>2025-05-11T18:10:10Z</time>
      </trkpt>
      <trkpt lat="47.36701" lon="-0.33502">
        <ele>32</ele>
        <time>2025-05-11T18:10:22Z</time>
      </trkpt>
      <trkpt lat="47.36683" lon="-0.33514">
        <ele>32</ele>
        <time>2025-05-11T18:10:27Z</time>
      </trkpt>
      <trkpt lat="47.36478" lon="-0.3375">
        <ele>31</ele>
        <time>2025-05-11T18:11:28Z</time>
      </trkpt>
      <trkpt lat="47.36447" lon="-0.3378">
        <ele>32</ele>
        <time>2025-05-11T18:11:36Z</time>
      </trkpt>
      <trkpt lat="47.36433" lon="-0.3379">
        <ele>32</ele>
        <time>2025-05-11T18:11:40Z</time>
      </trkpt>
      <trkpt lat="47.36392" lon="-0.33812">
        <ele>32</ele>
        <time>2025-05-11T18:11:50Z</time>
      </trkpt>
      <trkpt lat="47.36118" lon="-0.33951">
        <ele>35</ele>
        <time>2025-05-11T18:12:58Z</time>
      </trkpt>
      <trkpt lat="47.36113" lon="-0.33951">
        <ele>35</ele>
        <time>2025-05-11T18:12:59Z</time>
      </trkpt>
      <trkpt lat="47.36109" lon="-0.33945">
        <ele>35</ele>
        <time>2025-05-11T18:13:00Z</time>
      </trkpt>
      <trkpt lat="47.36063" lon="-0.33761">
        <ele>33</ele>
        <time>2025-05-11T18:13:31Z</time>
      </trkpt>
      <trkpt lat="47.36058" lon="-0.33752">
        <ele>33</ele>
        <time>2025-05-11T18:13:33Z</time>
      </trkpt>
      <trkpt lat="47.36055" lon="-0.33751">
        <ele>33</ele>
        <time>2025-05-11T18:13:34Z</time>
      </trkpt>
      <trkpt lat="47.35967" lon="-0.33819">
        <ele>35</ele>
        <time>2025-05-11T18:13:57Z</time>
      </trkpt>
      <trkpt lat="47.35948" lon="-0.33831">
        <ele>36</ele>
        <time>2025-05-11T18:14:02Z</time>
      </trkpt>
      <trkpt lat="47.35869" lon="-0.33843">
        <ele>35</ele>
        <time>2025-05-11T18:14:20Z</time>
      </trkpt>
      <trkpt lat="47.35768" lon="-0.33875">
        <ele>38</ele>
        <time>2025-05-11T18:14:44Z</time>
      </trkpt>
      <trkpt lat="47.3573" lon="-0.33904">
        <ele>39</ele>
        <time>2025-05-11T18:14:54Z</time>
      </trkpt>
      <trkpt lat="47.35684" lon="-0.33956">
        <ele>40</ele>
        <time>2025-05-11T18:15:08Z</time>
      </trkpt>
      <trkpt lat="47.35658" lon="-0.33974">
        <ele>40</ele>
        <time>2025-05-11T18:15:15Z</time>
      </trkpt>
      <trkpt lat="47.35643" lon="-0.33979">
        <ele>41</ele>
        <time>2025-05-11T18:15:18Z</time>
      </trkpt>
      <trkpt lat="47.3563" lon="-0.33977">
        <ele>42</ele>
        <time>2025-05-11T18:15:21Z</time>
      </trkpt>
      <trkpt lat="47.35621" lon="-0.33971">
        <ele>42</ele>
        <time>2025-05-11T18:15:24Z</time>
      </trkpt>
      <trkpt lat="47.35569" lon="-0.33893">
        <ele>47</ele>
        <time>2025-05-11T18:15:41Z</time>
      </trkpt>
      <trkpt lat="47.35546" lon="-0.33873">
        <ele>48</ele>
        <time>2025-05-11T18:15:47Z</time>
      </trkpt>
      <trkpt lat="47.35532" lon="-0.33869">
        <ele>49</ele>
        <time>2025-05-11T18:15:51Z</time>
      </trkpt>
      <trkpt lat="47.35509" lon="-0.3387">
        <ele>50</ele>
        <time>2025-05-11T18:15:56Z</time>
      </trkpt>
      <trkpt lat="47.35453" lon="-0.33882">
        <ele>52</ele>
        <time>2025-05-11T18:16:09Z</time>
      </trkpt>
      <trkpt lat="47.35443" lon="-0.33881">
        <ele>52</ele>
        <time>2025-05-11T18:16:11Z</time>
      </trkpt>
      <trkpt lat="47.35433" lon="-0.33875">
        <ele>52</ele>
        <time>2025-05-11T18:16:14Z</time>
      </trkpt>
      <trkpt lat="47.35404" lon="-0.33847">
        <ele>53</ele>
        <time>2025-05-11T18:16:22Z</time>
      </trkpt>
      <trkpt lat="47.35366" lon="-0.33802">
        <ele>56</ele>
        <time>2025-05-11T18:16:33Z</time>
      </trkpt>
      <trkpt lat="47.35308" lon="-0.33741">
        <ele>60</ele>
        <time>2025-05-11T18:16:50Z</time>
      </trkpt>
      <trkpt lat="47.35283" lon="-0.33721">
        <ele>61</ele>
        <time>2025-05-11T18:16:57Z</time>
      </trkpt>
      <trkpt lat="47.35233" lon="-0.3369">
        <ele>64</ele>
        <time>2025-05-11T18:17:09Z</time>
      </trkpt>
      <trkpt lat="47.35176" lon="-0.33685">
        <ele>67</ele>
        <time>2025-05-11T18:17:23Z</time>
      </trkpt>
      <trkpt lat="47.35113" lon="-0.33672">
        <ele>67</ele>
        <time>2025-05-11T18:17:38Z</time>
      </trkpt>
      <trkpt lat="47.35003" lon="-0.33691">
        <ele>68</ele>
        <time>2025-05-11T18:18:03Z</time>
      </trkpt>
      <trkpt lat="47.3498" lon="-0.33692">
        <ele>68</ele>
        <time>2025-05-11T18:18:09Z</time>
      </trkpt>
      <trkpt lat="47.34948" lon="-0.33689">
        <ele>68</ele>
        <time>2025-05-11T18:18:16Z</time>
      </trkpt>
      <trkpt lat="47.34933" lon="-0.33679">
        <ele>68</ele>
        <time>2025-05-11T18:18:20Z</time>
      </trkpt>
      <trkpt lat="47.34915" lon="-0.33658">
        <ele>68</ele>
        <time>2025-05-11T18:18:26Z</time>
      </trkpt>
      <trkpt lat="47.34894" lon="-0.33611">
        <ele>73</ele>
        <time>2025-05-11T18:18:34Z</time>
      </trkpt>
      <trkpt lat="47.34891" lon="-0.33609">
        <ele>73</ele>
        <time>2025-05-11T18:18:35Z</time>
      </trkpt>
      <trkpt lat="47.34884" lon="-0.33609">
        <ele>74</ele>
        <time>2025-05-11T18:18:37Z</time>
      </trkpt>
      <trkpt lat="47.34854" lon="-0.33598">
        <ele>78</ele>
        <time>2025-05-11T18:18:44Z</time>
      </trkpt>
      <trkpt lat="47.34829" lon="-0.33581">
        <ele>81</ele>
        <time>2025-05-11T18:18:50Z</time>
      </trkpt>
      <trkpt lat="47.34804" lon="-0.33574">
        <ele>83</ele>
        <time>2025-05-11T18:18:56Z</time>
      </trkpt>
      <trkpt lat="47.3479" lon="-0.33567">
        <ele>84</ele>
        <time>2025-05-11T18:19:00Z</time>
      </trkpt>
      <trkpt lat="47.34768" lon="-0.33564">
        <ele>85</ele>
        <time>2025-05-11T18:19:05Z</time>
      </trkpt>
      <trkpt lat="47.3475" lon="-0.33566">
        <ele>87</ele>
        <time>2025-05-11T18:19:09Z</time>
      </trkpt>
      <trkpt lat="47.34728" lon="-0.33574">
        <ele>87</ele>
        <time>2025-05-11T18:19:15Z</time>
      </trkpt>
      <trkpt lat="47.3468" lon="-0.33614">
        <ele>88</ele>
        <time>2025-05-11T18:19:27Z</time>
      </trkpt>
      <trkpt lat="47.34608" lon="-0.33666">
        <ele>86</ele>
        <time>2025-05-11T18:19:46Z</time>
      </trkpt>
      <trkpt lat="47.34639" lon="-0.33736">
        <ele>84</ele>
        <time>2025-05-11T18:19:59Z</time>
      </trkpt>
      <trkpt lat="47.34647" lon="-0.33768">
        <ele>83</ele>
        <time>2025-05-11T18:20:05Z</time>
      </trkpt>
      <trkpt lat="47.34661" lon="-0.338">
        <ele>81</ele>
        <time>2025-05-11T18:20:11Z</time>
      </trkpt>
      <trkpt lat="47.34668" lon="-0.33841">
        <ele>80</ele>
        <time>2025-05-11T18:20:17Z</time>
      </trkpt>
      <trkpt lat="47.34656" lon="-0.33846">
        <ele>80</ele>
        <time>2025-05-11T18:20:20Z</time>
      </trkpt>
      <trkpt lat="47.34617" lon="-0.33875">
        <ele>82</ele>
        <time>2025-05-11T18:20:31Z</time>
      </trkpt>
      <trkpt lat="47.34566" lon="-0.3393">
        <ele>84</ele>
        <time>2025-05-11T18:20:45Z</time>
      </trkpt>
      <trkpt lat="47.34551" lon="-0.33949">
        <ele>84</ele>
        <time>2025-05-11T18:20:50Z</time>
      </trkpt>
      <trkpt lat="47.34536" lon="-0.33976">
        <ele>83</ele>
        <time>2025-05-11T18:20:55Z</time>
      </trkpt>
      <trkpt lat="47.34495" lon="-0.34031">
        <ele>83</ele>
        <time>2025-05-11T18:21:08Z</time>
      </trkpt>
      <trkpt lat="47.34492" lon="-0.34039">
        <ele>84</ele>
        <time>2025-05-11T18:21:10Z</time>
      </trkpt>
      <trkpt lat="47.34495" lon="-0.34056">
        <ele>84</ele>
        <time>2025-05-11T18:21:13Z</time>
      </trkpt>
      <trkpt lat="47.34525" lon="-0.34098">
        <ele>85</ele>
        <time>2025-05-11T18:21:22Z</time>
      </trkpt>
      <trkpt lat="47.3454" lon="-0.34127">
        <ele>85</ele>
        <time>2025-05-11T18:21:28Z</time>
      </trkpt>
      <trkpt lat="47.34553" lon="-0.3416">
        <ele>85</ele>
        <time>2025-05-11T18:21:34Z</time>
      </trkpt>
      <trkpt lat="47.34564" lon="-0.34172">
        <ele>85</ele>
        <time>2025-05-11T18:21:37Z</time>
      </trkpt>
      <trkpt lat="47.34571" lon="-0.342">
        <ele>84</ele>
        <time>2025-05-11T18:21:42Z</time>
      </trkpt>
      <trkpt lat="47.34596" lon="-0.34256">
        <ele>81</ele>
        <time>2025-05-11T18:21:53Z</time>
      </trkpt>
      <trkpt lat="47.34596" lon="-0.34266">
        <ele>80</ele>
        <time>2025-05-11T18:21:54Z</time>
      </trkpt>
      <trkpt lat="47.3459" lon="-0.34278">
        <ele>79</ele>
        <time>2025-05-11T18:21:57Z</time>
      </trkpt>
      <trkpt lat="47.34563" lon="-0.34309">
        <ele>77</ele>
        <time>2025-05-11T18:22:05Z</time>
      </trkpt>
      <trkpt lat="47.34481" lon="-0.34416">
        <ele>77</ele>
        <time>2025-05-11T18:22:30Z</time>
      </trkpt>
      <trkpt lat="47.34449" lon="-0.34477">
        <ele>78</ele>
        <time>2025-05-11T18:22:42Z</time>
      </trkpt>
      <trkpt lat="47.3442" lon="-0.34549">
        <ele>77</ele>
        <time>2025-05-11T18:22:56Z</time>
      </trkpt>
      <trkpt lat="47.34401" lon="-0.34587">
        <ele>78</ele>
        <time>2025-05-11T18:23:03Z</time>
      </trkpt>
      <trkpt lat="47.34384" lon="-0.34613">
        <ele>78</ele>
        <time>2025-05-11T18:23:09Z</time>
      </trkpt>
      <trkpt lat="47.34343" lon="-0.34662">
        <ele>79</ele>
        <time>2025-05-11T18:23:21Z</time>
      </trkpt>
      <trkpt lat="47.34344" lon="-0.34674">
        <ele>78</ele>
        <time>2025-05-11T18:23:23Z</time>
      </trkpt>
      <trkpt lat="47.34365" lon="-0.34687">
        <ele>75</ele>
        <time>2025-05-11T18:23:28Z</time>
      </trkpt>
      <trkpt lat="47.34373" lon="-0.34688">
        <ele>74</ele>
        <time>2025-05-11T18:23:30Z</time>
      </trkpt>
      <trkpt lat="47.34392" lon="-0.34683">
        <ele>72</ele>
        <time>2025-05-11T18:23:35Z</time>
      </trkpt>
      <trkpt lat="47.34404" lon="-0.34688">
        <ele>71</ele>
        <time>2025-05-11T18:23:38Z</time>
      </trkpt>
      <trkpt lat="47.34449" lon="-0.34736">
        <ele>67</ele>
        <time>2025-05-11T18:23:51Z</time>
      </trkpt>
      <trkpt lat="47.34467" lon="-0.34762">
        <ele>66</ele>
        <time>2025-05-11T18:23:56Z</time>
      </trkpt>
      <trkpt lat="47.34475" lon="-0.34784">
        <ele>66</ele>
        <time>2025-05-11T18:24:00Z</time>
      </trkpt>
      <trkpt lat="47.34475" lon="-0.34793">
        <ele>65</ele>
        <time>2025-05-11T18:24:02Z</time>
      </trkpt>
      <trkpt lat="47.34455" lon="-0.34846">
        <ele>65</ele>
        <time>2025-05-11T18:24:11Z</time>
      </trkpt>
      <trkpt lat="47.34455" lon="-0.34862">
        <ele>64</ele>
        <time>2025-05-11T18:24:14Z</time>
      </trkpt>
      <trkpt lat="47.34463" lon="-0.34874">
        <ele>64</ele>
        <time>2025-05-11T18:24:17Z</time>
      </trkpt>
      <trkpt lat="47.34502" lon="-0.34914">
        <ele>61</ele>
        <time>2025-05-11T18:24:28Z</time>
      </trkpt>
      <trkpt lat="47.34512" lon="-0.34932">
        <ele>61</ele>
        <time>2025-05-11T18:24:31Z</time>
      </trkpt>
      <trkpt lat="47.34524" lon="-0.3497">
        <ele>60</ele>
        <time>2025-05-11T18:24:38Z</time>
      </trkpt>
      <trkpt lat="47.34544" lon="-0.35007">
        <ele>59</ele>
        <time>2025-05-11T18:24:46Z</time>
      </trkpt>
      <trkpt lat="47.34549" lon="-0.35024">
        <ele>59</ele>
        <time>2025-05-11T18:24:48Z</time>
      </trkpt>
      <trkpt lat="47.34548" lon="-0.35042">
        <ele>59</ele>
        <time>2025-05-11T18:24:51Z</time>
      </trkpt>
      <trkpt lat="47.34532" lon="-0.35081">
        <ele>58</ele>
        <time>2025-05-11T18:24:59Z</time>
      </trkpt>
      <trkpt lat="47.3453" lon="-0.35088">
        <ele>58</ele>
        <time>2025-05-11T18:25:00Z</time>
      </trkpt>
      <trkpt lat="47.34531" lon="-0.35097">
        <ele>58</ele>
        <time>2025-05-11T18:25:01Z</time>
      </trkpt>
      <trkpt lat="47.34574" lon="-0.35182">
        <ele>56</ele>
        <time>2025-05-11T18:25:18Z</time>
      </trkpt>
      <trkpt lat="47.34575" lon="-0.35189">
        <ele>56</ele>
        <time>2025-05-11T18:25:19Z</time>
      </trkpt>
      <trkpt lat="47.34573" lon="-0.35194">
        <ele>56</ele>
        <time>2025-05-11T18:25:20Z</time>
      </trkpt>
      <trkpt lat="47.34537" lon="-0.35245">
        <ele>55</ele>
        <time>2025-05-11T18:25:32Z</time>
      </trkpt>
      <trkpt lat="47.34472" lon="-0.35354">
        <ele>55</ele>
        <time>2025-05-11T18:25:55Z</time>
      </trkpt>
      <trkpt lat="47.34433" lon="-0.35401">
        <ele>55</ele>
        <time>2025-05-11T18:26:06Z</time>
      </trkpt>
      <trkpt lat="47.34354" lon="-0.35488">
        <ele>53</ele>
        <time>2025-05-11T18:26:29Z</time>
      </trkpt>
      <trkpt lat="47.34344" lon="-0.35494">
        <ele>53</ele>
        <time>2025-05-11T18:26:32Z</time>
      </trkpt>
      <trkpt lat="47.34329" lon="-0.35493">
        <ele>53</ele>
        <time>2025-05-11T18:26:35Z</time>
      </trkpt>
      <trkpt lat="47.34314" lon="-0.35498">
        <ele>54</ele>
        <time>2025-05-11T18:26:39Z</time>
      </trkpt>
      <trkpt lat="47.3431" lon="-0.35497">
        <ele>54</ele>
        <time>2025-05-11T18:26:40Z</time>
      </trkpt>
      <trkpt lat="47.34307" lon="-0.35493">
        <ele>54</ele>
        <time>2025-05-11T18:26:41Z</time>
      </trkpt>
      <trkpt lat="47.34306" lon="-0.35481">
        <ele>54</ele>
        <time>2025-05-11T18:26:43Z</time>
      </trkpt>
      <trkpt lat="47.34308" lon="-0.35475">
        <ele>54</ele>
        <time>2025-05-11T18:26:44Z</time>
      </trkpt>
      <trkpt lat="47.34315" lon="-0.35469">
        <ele>54</ele>
        <time>2025-05-11T18:26:46Z</time>
      </trkpt>
      <trkpt lat="47.34322" lon="-0.35476">
        <ele>54</ele>
        <time>2025-05-11T18:26:48Z</time>
      </trkpt>
      <trkpt lat="47.34323" lon="-0.35487">
        <ele>53</ele>
        <time>2025-05-11T18:26:50Z</time>
      </trkpt>
      <trkpt lat="47.3432" lon="-0.35495">
        <ele>54</ele>
        <time>2025-05-11T18:26:51Z</time>
      </trkpt>
      <trkpt lat="47.34311" lon="-0.35499">
        <ele>54</ele>
        <time>2025-05-11T18:26:53Z</time>
      </trkpt>
      <trkpt lat="47.34302" lon="-0.3548">
        <ele>54</ele>
        <time>2025-05-11T18:26:57Z</time>
      </trkpt>
      <trkpt lat="47.34293" lon="-0.3547">
        <ele>54</ele>
        <time>2025-05-11T18:26:59Z</time>
      </trkpt>
      <trkpt lat="47.34272" lon="-0.35437">
        <ele>55</ele>
        <time>2025-05-11T18:27:07Z</time>
      </trkpt>
      <trkpt lat="47.34295" lon="-0.35469">
        <ele>54</ele>
        <time>2025-05-11T18:27:14Z</time>
      </trkpt>
      <trkpt lat="47.34305" lon="-0.35472">
        <ele>54</ele>
        <time>2025-05-11T18:27:16Z</time>
      </trkpt>
      <trkpt lat="47.34317" lon="-0.35469">
        <ele>54</ele>
        <time>2025-05-11T18:27:19Z</time>
      </trkpt>
      <trkpt lat="47.34322" lon="-0.35471">
        <ele>54</ele>
        <time>2025-05-11T18:27:20Z</time>
      </trkpt>
      <trkpt lat="47.34325" lon="-0.35476">
        <ele>54</ele>
        <time>2025-05-11T18:27:22Z</time>
      </trkpt>
      <trkpt lat="47.34326" lon="-0.35483">
        <ele>53</ele>
        <time>2025-05-11T18:27:23Z</time>
      </trkpt>
      <trkpt lat="47.34324" lon="-0.35489">
        <ele>53</ele>
        <time>2025-05-11T18:27:24Z</time>
      </trkpt>
      <trkpt lat="47.34314" lon="-0.35508">
        <ele>54</ele>
        <time>2025-05-11T18:27:28Z</time>
      </trkpt>
      <trkpt lat="47.34293" lon="-0.35563">
        <ele>55</ele>
        <time>2025-05-11T18:27:37Z</time>
      </trkpt>
      <trkpt lat="47.34266" lon="-0.35608">
        <ele>55</ele>
        <time>2025-05-11T18:27:47Z</time>
      </trkpt>
      <trkpt lat="47.34197" lon="-0.35698">
        <ele>57</ele>
        <time>2025-05-11T18:28:09Z</time>
      </trkpt>
      <trkpt lat="47.34123" lon="-0.35805">
        <ele>56</ele>
        <time>2025-05-11T18:28:33Z</time>
      </trkpt>
      <trkpt lat="47.34085" lon="-0.3585">
        <ele>56</ele>
        <time>2025-05-11T18:28:44Z</time>
      </trkpt>
      <trkpt lat="47.34075" lon="-0.35857">
        <ele>56</ele>
        <time>2025-05-11T18:28:47Z</time>
      </trkpt>
      <trkpt lat="47.3407" lon="-0.35858">
        <ele>56</ele>
        <time>2025-05-11T18:28:48Z</time>
      </trkpt>
      <trkpt lat="47.34064" lon="-0.35854">
        <ele>56</ele>
        <time>2025-05-11T18:28:49Z</time>
      </trkpt>
      <trkpt lat="47.34052" lon="-0.35819">
        <ele>57</ele>
        <time>2025-05-11T18:28:56Z</time>
      </trkpt>
      <trkpt lat="47.34032" lon="-0.35712">
        <ele>57</ele>
        <time>2025-05-11T18:29:13Z</time>
      </trkpt>
      <trkpt lat="47.34013" lon="-0.35628">
        <ele>58</ele>
        <time>2025-05-11T18:29:27Z</time>
      </trkpt>
      <trkpt lat="47.34003" lon="-0.35562">
        <ele>58</ele>
        <time>2025-05-11T18:29:38Z</time>
      </trkpt>
      <trkpt lat="47.33998" lon="-0.35458">
        <ele>58</ele>
        <time>2025-05-11T18:29:54Z</time>
      </trkpt>
      <trkpt lat="47.33994" lon="-0.35438">
        <ele>58</ele>
        <time>2025-05-11T18:29:58Z</time>
      </trkpt>
      <trkpt lat="47.33991" lon="-0.35435">
        <ele>58</ele>
        <time>2025-05-11T18:29:59Z</time>
      </trkpt>
      <trkpt lat="47.33987" lon="-0.35435">
        <ele>58</ele>
        <time>2025-05-11T18:29:59Z</time>
      </trkpt>
      <trkpt lat="47.33946" lon="-0.35459">
        <ele>59</ele>
        <time>2025-05-11T18:30:10Z</time>
      </trkpt>
      <trkpt lat="47.33935" lon="-0.35462">
        <ele>59</ele>
        <time>2025-05-11T18:30:12Z</time>
      </trkpt>
      <trkpt lat="47.3393" lon="-0.35457">
        <ele>59</ele>
        <time>2025-05-11T18:30:14Z</time>
      </trkpt>
      <trkpt lat="47.33925" lon="-0.35431">
        <ele>59</ele>
        <time>2025-05-11T18:30:18Z</time>
      </trkpt>
    </trkseg>
  </trk>
</gpx>